<?xml version="1.0" encoding="UTF-8" standalone="no" ?>
<gpx xmlns="http://www.topografix.com/GPX/1/1" xmlns:xsi="http://www.w3.org/2001/XMLSchema-instance" xsi:schemaLocation="http://www.topografix.com/GPX/1/1 http://www.topografix.com/GPX/1/1/gpx.xsd" version="1.1" creator="VisuGPX - https://www.visugpx.com">
  <metadata>
    <name>Arpette en snowraq</name>
    <desc><![CDATA[Trace AlpineQuest 13/12/2020 08:57:36]]></desc>
  </metadata>
  <trk>
    <name><![CDATA[Arpette en snowraq_1]]></name>
    <trkseg>
      <trkpt lat="45.57584" lon="6.78069">
        <ele>1723.386</ele>
        <time>2020-12-13T07:57:36Z</time>
      </trkpt>
      <trkpt lat="45.57577" lon="6.78069">
        <ele>1726.241</ele>
        <time>2020-12-13T07:59:20Z</time>
      </trkpt>
      <trkpt lat="45.5757" lon="6.78068">
        <ele>1726.769</ele>
        <time>2020-12-13T07:59:27Z</time>
      </trkpt>
      <trkpt lat="45.57564" lon="6.78073">
        <ele>1727.178</ele>
        <time>2020-12-13T07:59:38Z</time>
      </trkpt>
      <trkpt lat="45.57559" lon="6.78081">
        <ele>1726.355</ele>
        <time>2020-12-13T07:59:47Z</time>
      </trkpt>
      <trkpt lat="45.57557" lon="6.7809">
        <ele>1725.054</ele>
        <time>2020-12-13T08:00:08Z</time>
      </trkpt>
      <trkpt lat="45.57554" lon="6.78098">
        <ele>1726.142</ele>
        <time>2020-12-13T08:00:17Z</time>
      </trkpt>
      <trkpt lat="45.5755" lon="6.78108">
        <ele>1728.466</ele>
        <time>2020-12-13T08:00:25Z</time>
      </trkpt>
      <trkpt lat="45.57548" lon="6.78117">
        <ele>1730.425</ele>
        <time>2020-12-13T08:00:33Z</time>
      </trkpt>
      <trkpt lat="45.57546" lon="6.78126">
        <ele>1731.583</ele>
        <time>2020-12-13T08:00:41Z</time>
      </trkpt>
      <trkpt lat="45.57544" lon="6.78135">
        <ele>1731.429</ele>
        <time>2020-12-13T08:00:48Z</time>
      </trkpt>
      <trkpt lat="45.57543" lon="6.78146">
        <ele>1730.771</ele>
        <time>2020-12-13T08:00:55Z</time>
      </trkpt>
      <trkpt lat="45.57541" lon="6.78155">
        <ele>1731.914</ele>
        <time>2020-12-13T08:01:02Z</time>
      </trkpt>
      <trkpt lat="45.57538" lon="6.78164">
        <ele>1733.387</ele>
        <time>2020-12-13T08:01:09Z</time>
      </trkpt>
      <trkpt lat="45.57535" lon="6.78174">
        <ele>1732.651</ele>
        <time>2020-12-13T08:01:15Z</time>
      </trkpt>
      <trkpt lat="45.57532" lon="6.78183">
        <ele>1734.442</ele>
        <time>2020-12-13T08:01:22Z</time>
      </trkpt>
      <trkpt lat="45.57529" lon="6.78193">
        <ele>1735.972</ele>
        <time>2020-12-13T08:01:29Z</time>
      </trkpt>
      <trkpt lat="45.57527" lon="6.78202">
        <ele>1738.547</ele>
        <time>2020-12-13T08:01:36Z</time>
      </trkpt>
      <trkpt lat="45.57525" lon="6.78211">
        <ele>1738.937</ele>
        <time>2020-12-13T08:01:43Z</time>
      </trkpt>
      <trkpt lat="45.57523" lon="6.7822">
        <ele>1739.632</ele>
        <time>2020-12-13T08:01:50Z</time>
      </trkpt>
      <trkpt lat="45.57521" lon="6.7823">
        <ele>1740.699</ele>
        <time>2020-12-13T08:01:57Z</time>
      </trkpt>
      <trkpt lat="45.57518" lon="6.78239">
        <ele>1742.108</ele>
        <time>2020-12-13T08:02:04Z</time>
      </trkpt>
      <trkpt lat="45.57514" lon="6.78248">
        <ele>1742.466</ele>
        <time>2020-12-13T08:02:11Z</time>
      </trkpt>
      <trkpt lat="45.57509" lon="6.78255">
        <ele>1745.753</ele>
        <time>2020-12-13T08:02:18Z</time>
      </trkpt>
      <trkpt lat="45.57504" lon="6.78261">
        <ele>1746.298</ele>
        <time>2020-12-13T08:02:26Z</time>
      </trkpt>
      <trkpt lat="45.57497" lon="6.78263">
        <ele>1747.011</ele>
        <time>2020-12-13T08:02:35Z</time>
      </trkpt>
      <trkpt lat="45.5749" lon="6.78265">
        <ele>1746.459</ele>
        <time>2020-12-13T08:02:43Z</time>
      </trkpt>
      <trkpt lat="45.57483" lon="6.78264">
        <ele>1747.257</ele>
        <time>2020-12-13T08:02:51Z</time>
      </trkpt>
      <trkpt lat="45.57476" lon="6.78263">
        <ele>1746.474</ele>
        <time>2020-12-13T08:02:59Z</time>
      </trkpt>
      <trkpt lat="45.57469" lon="6.78263">
        <ele>1746.566</ele>
        <time>2020-12-13T08:03:06Z</time>
      </trkpt>
      <trkpt lat="45.57463" lon="6.78264">
        <ele>1749.398</ele>
        <time>2020-12-13T08:03:12Z</time>
      </trkpt>
      <trkpt lat="45.57456" lon="6.78265">
        <ele>1750.831</ele>
        <time>2020-12-13T08:03:20Z</time>
      </trkpt>
      <trkpt lat="45.5745" lon="6.78269">
        <ele>1750.838</ele>
        <time>2020-12-13T08:03:29Z</time>
      </trkpt>
      <trkpt lat="45.57446" lon="6.78276">
        <ele>1752.314</ele>
        <time>2020-12-13T08:03:39Z</time>
      </trkpt>
      <trkpt lat="45.5744" lon="6.78281">
        <ele>1754.602</ele>
        <time>2020-12-13T08:03:49Z</time>
      </trkpt>
      <trkpt lat="45.57433" lon="6.78283">
        <ele>1753.293</ele>
        <time>2020-12-13T08:03:57Z</time>
      </trkpt>
      <trkpt lat="45.57426" lon="6.78286">
        <ele>1754.099</ele>
        <time>2020-12-13T08:04:05Z</time>
      </trkpt>
      <trkpt lat="45.57419" lon="6.78287">
        <ele>1754.861</ele>
        <time>2020-12-13T08:04:13Z</time>
      </trkpt>
      <trkpt lat="45.57413" lon="6.78288">
        <ele>1754.995</ele>
        <time>2020-12-13T08:04:21Z</time>
      </trkpt>
      <trkpt lat="45.57406" lon="6.7829">
        <ele>1755.917</ele>
        <time>2020-12-13T08:04:29Z</time>
      </trkpt>
      <trkpt lat="45.57399" lon="6.78291">
        <ele>1757.837</ele>
        <time>2020-12-13T08:04:38Z</time>
      </trkpt>
      <trkpt lat="45.57392" lon="6.78293">
        <ele>1757.729</ele>
        <time>2020-12-13T08:04:47Z</time>
      </trkpt>
      <trkpt lat="45.57387" lon="6.783">
        <ele>1757.47</ele>
        <time>2020-12-13T08:04:56Z</time>
      </trkpt>
      <trkpt lat="45.57388" lon="6.7831">
        <ele>1763.663</ele>
        <time>2020-12-13T08:05:05Z</time>
      </trkpt>
      <trkpt lat="45.57394" lon="6.78314">
        <ele>1765.76</ele>
        <time>2020-12-13T08:05:13Z</time>
      </trkpt>
      <trkpt lat="45.574" lon="6.78319">
        <ele>1767.248</ele>
        <time>2020-12-13T08:05:21Z</time>
      </trkpt>
      <trkpt lat="45.57407" lon="6.78323">
        <ele>1768.599</ele>
        <time>2020-12-13T08:05:38Z</time>
      </trkpt>
      <trkpt lat="45.57414" lon="6.78326">
        <ele>1769.832</ele>
        <time>2020-12-13T08:05:46Z</time>
      </trkpt>
      <trkpt lat="45.5742" lon="6.78331">
        <ele>1770.98</ele>
        <time>2020-12-13T08:05:54Z</time>
      </trkpt>
      <trkpt lat="45.57419" lon="6.7834">
        <ele>1772.467</ele>
        <time>2020-12-13T08:06:02Z</time>
      </trkpt>
      <trkpt lat="45.57413" lon="6.78345">
        <ele>1773.443</ele>
        <time>2020-12-13T08:06:09Z</time>
      </trkpt>
      <trkpt lat="45.57406" lon="6.78346">
        <ele>1772.174</ele>
        <time>2020-12-13T08:06:16Z</time>
      </trkpt>
      <trkpt lat="45.574" lon="6.78345">
        <ele>1771.837</ele>
        <time>2020-12-13T08:06:24Z</time>
      </trkpt>
      <trkpt lat="45.57393" lon="6.78346">
        <ele>1770.235</ele>
        <time>2020-12-13T08:06:32Z</time>
      </trkpt>
      <trkpt lat="45.57386" lon="6.78346">
        <ele>1770.576</ele>
        <time>2020-12-13T08:06:40Z</time>
      </trkpt>
      <trkpt lat="45.57379" lon="6.78348">
        <ele>1770.162</ele>
        <time>2020-12-13T08:06:48Z</time>
      </trkpt>
      <trkpt lat="45.57372" lon="6.7835">
        <ele>1771.182</ele>
        <time>2020-12-13T08:06:55Z</time>
      </trkpt>
      <trkpt lat="45.57366" lon="6.78352">
        <ele>1771.843</ele>
        <time>2020-12-13T08:07:02Z</time>
      </trkpt>
      <trkpt lat="45.57359" lon="6.78354">
        <ele>1773.788</ele>
        <time>2020-12-13T08:07:09Z</time>
      </trkpt>
      <trkpt lat="45.57354" lon="6.7836">
        <ele>1774.387</ele>
        <time>2020-12-13T08:07:17Z</time>
      </trkpt>
      <trkpt lat="45.57356" lon="6.78369">
        <ele>1779.568</ele>
        <time>2020-12-13T08:07:25Z</time>
      </trkpt>
      <trkpt lat="45.57362" lon="6.78373">
        <ele>1781.827</ele>
        <time>2020-12-13T08:07:33Z</time>
      </trkpt>
      <trkpt lat="45.57369" lon="6.78374">
        <ele>1783.277</ele>
        <time>2020-12-13T08:07:41Z</time>
      </trkpt>
      <trkpt lat="45.57376" lon="6.78377">
        <ele>1784.742</ele>
        <time>2020-12-13T08:07:49Z</time>
      </trkpt>
      <trkpt lat="45.57383" lon="6.78381">
        <ele>1785.436</ele>
        <time>2020-12-13T08:07:56Z</time>
      </trkpt>
      <trkpt lat="45.57388" lon="6.78385">
        <ele>1786.58</ele>
        <time>2020-12-13T08:08:04Z</time>
      </trkpt>
      <trkpt lat="45.57394" lon="6.78391">
        <ele>1787.349</ele>
        <time>2020-12-13T08:08:11Z</time>
      </trkpt>
      <trkpt lat="45.57397" lon="6.784">
        <ele>1787.913</ele>
        <time>2020-12-13T08:08:19Z</time>
      </trkpt>
      <trkpt lat="45.57394" lon="6.78408">
        <ele>1788.539</ele>
        <time>2020-12-13T08:08:28Z</time>
      </trkpt>
      <trkpt lat="45.57388" lon="6.78415">
        <ele>1789.639</ele>
        <time>2020-12-13T08:08:36Z</time>
      </trkpt>
      <trkpt lat="45.57382" lon="6.7842">
        <ele>1790.65</ele>
        <time>2020-12-13T08:08:45Z</time>
      </trkpt>
      <trkpt lat="45.57378" lon="6.78428">
        <ele>1794.597</ele>
        <time>2020-12-13T08:08:57Z</time>
      </trkpt>
      <trkpt lat="45.57376" lon="6.78437">
        <ele>1794.264</ele>
        <time>2020-12-13T08:09:07Z</time>
      </trkpt>
      <trkpt lat="45.57375" lon="6.78447">
        <ele>1796.649</ele>
        <time>2020-12-13T08:09:17Z</time>
      </trkpt>
      <trkpt lat="45.57374" lon="6.78456">
        <ele>1798.183</ele>
        <time>2020-12-13T08:09:27Z</time>
      </trkpt>
      <trkpt lat="45.57372" lon="6.78466">
        <ele>1800.984</ele>
        <time>2020-12-13T08:09:38Z</time>
      </trkpt>
      <trkpt lat="45.57369" lon="6.78474">
        <ele>1801.928</ele>
        <time>2020-12-13T08:09:50Z</time>
      </trkpt>
      <trkpt lat="45.57368" lon="6.78484">
        <ele>1804.167</ele>
        <time>2020-12-13T08:10:02Z</time>
      </trkpt>
      <trkpt lat="45.5737" lon="6.78494">
        <ele>1804.89</ele>
        <time>2020-12-13T08:10:10Z</time>
      </trkpt>
      <trkpt lat="45.57367" lon="6.78503">
        <ele>1805.048</ele>
        <time>2020-12-13T08:10:19Z</time>
      </trkpt>
      <trkpt lat="45.57364" lon="6.78512">
        <ele>1806.818</ele>
        <time>2020-12-13T08:10:30Z</time>
      </trkpt>
      <trkpt lat="45.57363" lon="6.78522">
        <ele>1810.39</ele>
        <time>2020-12-13T08:10:43Z</time>
      </trkpt>
      <trkpt lat="45.57361" lon="6.78531">
        <ele>1811.174</ele>
        <time>2020-12-13T08:10:52Z</time>
      </trkpt>
      <trkpt lat="45.57357" lon="6.78539">
        <ele>1809.476</ele>
        <time>2020-12-13T08:11:01Z</time>
      </trkpt>
      <trkpt lat="45.57354" lon="6.78547">
        <ele>1809.701</ele>
        <time>2020-12-13T08:11:09Z</time>
      </trkpt>
      <trkpt lat="45.57352" lon="6.78556">
        <ele>1811.278</ele>
        <time>2020-12-13T08:11:16Z</time>
      </trkpt>
      <trkpt lat="45.57351" lon="6.78565">
        <ele>1813.274</ele>
        <time>2020-12-13T08:11:23Z</time>
      </trkpt>
      <trkpt lat="45.57352" lon="6.78575">
        <ele>1815.196</ele>
        <time>2020-12-13T08:11:30Z</time>
      </trkpt>
      <trkpt lat="45.57352" lon="6.78584">
        <ele>1815.145</ele>
        <time>2020-12-13T08:11:37Z</time>
      </trkpt>
      <trkpt lat="45.57351" lon="6.78594">
        <ele>1815.325</ele>
        <time>2020-12-13T08:11:45Z</time>
      </trkpt>
      <trkpt lat="45.5735" lon="6.78603">
        <ele>1815.501</ele>
        <time>2020-12-13T08:11:53Z</time>
      </trkpt>
      <trkpt lat="45.57349" lon="6.78613">
        <ele>1817.181</ele>
        <time>2020-12-13T08:12:01Z</time>
      </trkpt>
      <trkpt lat="45.57348" lon="6.78623">
        <ele>1819.154</ele>
        <time>2020-12-13T08:12:09Z</time>
      </trkpt>
      <trkpt lat="45.57347" lon="6.78633">
        <ele>1821.984</ele>
        <time>2020-12-13T08:12:17Z</time>
      </trkpt>
      <trkpt lat="45.57346" lon="6.78643">
        <ele>1824.483</ele>
        <time>2020-12-13T08:12:25Z</time>
      </trkpt>
      <trkpt lat="45.57346" lon="6.78653">
        <ele>1824.521</ele>
        <time>2020-12-13T08:12:35Z</time>
      </trkpt>
      <trkpt lat="45.57345" lon="6.78662">
        <ele>1824.649</ele>
        <time>2020-12-13T08:12:44Z</time>
      </trkpt>
      <trkpt lat="45.57345" lon="6.78672">
        <ele>1826.016</ele>
        <time>2020-12-13T08:12:53Z</time>
      </trkpt>
      <trkpt lat="45.57347" lon="6.78682">
        <ele>1827.515</ele>
        <time>2020-12-13T08:12:59Z</time>
      </trkpt>
      <trkpt lat="45.57349" lon="6.78691">
        <ele>1830.274</ele>
        <time>2020-12-13T08:13:08Z</time>
      </trkpt>
      <trkpt lat="45.57352" lon="6.78701">
        <ele>1832.449</ele>
        <time>2020-12-13T08:13:14Z</time>
      </trkpt>
      <trkpt lat="45.57351" lon="6.7871">
        <ele>1832.405</ele>
        <time>2020-12-13T08:13:24Z</time>
      </trkpt>
      <trkpt lat="45.5735" lon="6.78721">
        <ele>1832.382</ele>
        <time>2020-12-13T08:13:35Z</time>
      </trkpt>
      <trkpt lat="45.57349" lon="6.7873">
        <ele>1833.017</ele>
        <time>2020-12-13T08:13:45Z</time>
      </trkpt>
      <trkpt lat="45.57348" lon="6.7874">
        <ele>1835.488</ele>
        <time>2020-12-13T08:13:52Z</time>
      </trkpt>
      <trkpt lat="45.57349" lon="6.7875">
        <ele>1837.738</ele>
        <time>2020-12-13T08:14:00Z</time>
      </trkpt>
      <trkpt lat="45.5735" lon="6.78759">
        <ele>1839.978</ele>
        <time>2020-12-13T08:14:10Z</time>
      </trkpt>
      <trkpt lat="45.57351" lon="6.78769">
        <ele>1840.685</ele>
        <time>2020-12-13T08:14:19Z</time>
      </trkpt>
      <trkpt lat="45.57351" lon="6.78778">
        <ele>1840.974</ele>
        <time>2020-12-13T08:14:28Z</time>
      </trkpt>
      <trkpt lat="45.57349" lon="6.78787">
        <ele>1840.558</ele>
        <time>2020-12-13T08:14:38Z</time>
      </trkpt>
      <trkpt lat="45.57347" lon="6.78796">
        <ele>1842.547</ele>
        <time>2020-12-13T08:14:48Z</time>
      </trkpt>
      <trkpt lat="45.57344" lon="6.78805">
        <ele>1845.613</ele>
        <time>2020-12-13T08:15:00Z</time>
      </trkpt>
      <trkpt lat="45.57343" lon="6.78814">
        <ele>1847.95</ele>
        <time>2020-12-13T08:15:13Z</time>
      </trkpt>
      <trkpt lat="45.57344" lon="6.78824">
        <ele>1848.369</ele>
        <time>2020-12-13T08:15:24Z</time>
      </trkpt>
      <trkpt lat="45.57345" lon="6.78833">
        <ele>1849.29</ele>
        <time>2020-12-13T08:15:34Z</time>
      </trkpt>
      <trkpt lat="45.57342" lon="6.78841">
        <ele>1850.141</ele>
        <time>2020-12-13T08:15:43Z</time>
      </trkpt>
      <trkpt lat="45.57341" lon="6.7885">
        <ele>1851.774</ele>
        <time>2020-12-13T08:15:53Z</time>
      </trkpt>
      <trkpt lat="45.57341" lon="6.7886">
        <ele>1853.237</ele>
        <time>2020-12-13T08:16:05Z</time>
      </trkpt>
      <trkpt lat="45.5734" lon="6.78869">
        <ele>1855.455</ele>
        <time>2020-12-13T08:16:18Z</time>
      </trkpt>
      <trkpt lat="45.57339" lon="6.78879">
        <ele>1858.086</ele>
        <time>2020-12-13T08:16:30Z</time>
      </trkpt>
      <trkpt lat="45.57338" lon="6.78888">
        <ele>1859.761</ele>
        <time>2020-12-13T08:16:45Z</time>
      </trkpt>
      <trkpt lat="45.57337" lon="6.78897">
        <ele>1861.72</ele>
        <time>2020-12-13T08:16:57Z</time>
      </trkpt>
      <trkpt lat="45.57336" lon="6.78907">
        <ele>1863.286</ele>
        <time>2020-12-13T08:17:10Z</time>
      </trkpt>
      <trkpt lat="45.57334" lon="6.78916">
        <ele>1863.929</ele>
        <time>2020-12-13T08:18:06Z</time>
      </trkpt>
      <trkpt lat="45.57334" lon="6.78926">
        <ele>1867.06</ele>
        <time>2020-12-13T08:18:21Z</time>
      </trkpt>
      <trkpt lat="45.57332" lon="6.78935">
        <ele>1869.21</ele>
        <time>2020-12-13T08:18:34Z</time>
      </trkpt>
      <trkpt lat="45.5733" lon="6.78944">
        <ele>1871.509</ele>
        <time>2020-12-13T08:18:46Z</time>
      </trkpt>
      <trkpt lat="45.57329" lon="6.78954">
        <ele>1875.22</ele>
        <time>2020-12-13T08:19:03Z</time>
      </trkpt>
      <trkpt lat="45.57327" lon="6.78962">
        <ele>1877.32</ele>
        <time>2020-12-13T08:19:18Z</time>
      </trkpt>
      <trkpt lat="45.57324" lon="6.7897">
        <ele>1879.442</ele>
        <time>2020-12-13T08:19:32Z</time>
      </trkpt>
      <trkpt lat="45.5732" lon="6.78979">
        <ele>1879.7</ele>
        <time>2020-12-13T08:19:44Z</time>
      </trkpt>
      <trkpt lat="45.57319" lon="6.78988">
        <ele>1881.199</ele>
        <time>2020-12-13T08:19:54Z</time>
      </trkpt>
      <trkpt lat="45.57318" lon="6.78998">
        <ele>1883.646</ele>
        <time>2020-12-13T08:20:06Z</time>
      </trkpt>
      <trkpt lat="45.57316" lon="6.79008">
        <ele>1885.703</ele>
        <time>2020-12-13T08:20:19Z</time>
      </trkpt>
      <trkpt lat="45.57314" lon="6.79018">
        <ele>1887.201</ele>
        <time>2020-12-13T08:20:30Z</time>
      </trkpt>
      <trkpt lat="45.57313" lon="6.79027">
        <ele>1889.079</ele>
        <time>2020-12-13T08:20:41Z</time>
      </trkpt>
      <trkpt lat="45.57312" lon="6.79037">
        <ele>1890.897</ele>
        <time>2020-12-13T08:20:52Z</time>
      </trkpt>
      <trkpt lat="45.5731" lon="6.79046">
        <ele>1891.8</ele>
        <time>2020-12-13T08:21:03Z</time>
      </trkpt>
      <trkpt lat="45.57309" lon="6.79056">
        <ele>1893.757</ele>
        <time>2020-12-13T08:21:15Z</time>
      </trkpt>
      <trkpt lat="45.57307" lon="6.79065">
        <ele>1896.14</ele>
        <time>2020-12-13T08:21:28Z</time>
      </trkpt>
      <trkpt lat="45.57306" lon="6.79074">
        <ele>1898.919</ele>
        <time>2020-12-13T08:21:41Z</time>
      </trkpt>
      <trkpt lat="45.57306" lon="6.79084">
        <ele>1900.181</ele>
        <time>2020-12-13T08:21:55Z</time>
      </trkpt>
      <trkpt lat="45.57304" lon="6.79093">
        <ele>1902.522</ele>
        <time>2020-12-13T08:22:33Z</time>
      </trkpt>
      <trkpt lat="45.57304" lon="6.79103">
        <ele>1904.146</ele>
        <time>2020-12-13T08:22:47Z</time>
      </trkpt>
      <trkpt lat="45.57303" lon="6.79112">
        <ele>1905.233</ele>
        <time>2020-12-13T08:23:02Z</time>
      </trkpt>
      <trkpt lat="45.57303" lon="6.79122">
        <ele>1906.494</ele>
        <time>2020-12-13T08:23:15Z</time>
      </trkpt>
      <trkpt lat="45.57301" lon="6.79132">
        <ele>1910.384</ele>
        <time>2020-12-13T08:23:43Z</time>
      </trkpt>
      <trkpt lat="45.573" lon="6.79141">
        <ele>1913.196</ele>
        <time>2020-12-13T08:23:58Z</time>
      </trkpt>
      <trkpt lat="45.57299" lon="6.79151">
        <ele>1913.742</ele>
        <time>2020-12-13T08:24:13Z</time>
      </trkpt>
      <trkpt lat="45.57298" lon="6.7916">
        <ele>1916.916</ele>
        <time>2020-12-13T08:24:26Z</time>
      </trkpt>
      <trkpt lat="45.57295" lon="6.79169">
        <ele>1919.654</ele>
        <time>2020-12-13T08:24:41Z</time>
      </trkpt>
      <trkpt lat="45.5729" lon="6.79175">
        <ele>1918.888</ele>
        <time>2020-12-13T08:24:50Z</time>
      </trkpt>
      <trkpt lat="45.57283" lon="6.79173">
        <ele>1915.874</ele>
        <time>2020-12-13T08:25:04Z</time>
      </trkpt>
      <trkpt lat="45.57276" lon="6.79174">
        <ele>1914.365</ele>
        <time>2020-12-13T08:25:16Z</time>
      </trkpt>
      <trkpt lat="45.5727" lon="6.79178">
        <ele>1914.943</ele>
        <time>2020-12-13T08:25:27Z</time>
      </trkpt>
      <trkpt lat="45.57264" lon="6.79185">
        <ele>1916.625</ele>
        <time>2020-12-13T08:25:40Z</time>
      </trkpt>
      <trkpt lat="45.57264" lon="6.79195">
        <ele>1922.834</ele>
        <time>2020-12-13T08:25:51Z</time>
      </trkpt>
      <trkpt lat="45.57266" lon="6.79204">
        <ele>1927.784</ele>
        <time>2020-12-13T08:26:05Z</time>
      </trkpt>
      <trkpt lat="45.57268" lon="6.79213">
        <ele>1930.323</ele>
        <time>2020-12-13T08:26:20Z</time>
      </trkpt>
      <trkpt lat="45.57269" lon="6.79223">
        <ele>1931.571</ele>
        <time>2020-12-13T08:26:34Z</time>
      </trkpt>
      <trkpt lat="45.5727" lon="6.79232">
        <ele>1934.558</ele>
        <time>2020-12-13T08:26:48Z</time>
      </trkpt>
      <trkpt lat="45.57271" lon="6.79242">
        <ele>1935.803</ele>
        <time>2020-12-13T08:27:00Z</time>
      </trkpt>
      <trkpt lat="45.57273" lon="6.79252">
        <ele>1935.774</ele>
        <time>2020-12-13T08:27:11Z</time>
      </trkpt>
      <trkpt lat="45.57275" lon="6.79261">
        <ele>1937.036</ele>
        <time>2020-12-13T08:27:23Z</time>
      </trkpt>
      <trkpt lat="45.57276" lon="6.7927">
        <ele>1939.04</ele>
        <time>2020-12-13T08:27:35Z</time>
      </trkpt>
      <trkpt lat="45.57279" lon="6.79279">
        <ele>1939.888</ele>
        <time>2020-12-13T08:27:47Z</time>
      </trkpt>
      <trkpt lat="45.57283" lon="6.79287">
        <ele>1942.587</ele>
        <time>2020-12-13T08:27:57Z</time>
      </trkpt>
      <trkpt lat="45.57285" lon="6.79296">
        <ele>1944.823</ele>
        <time>2020-12-13T08:28:08Z</time>
      </trkpt>
      <trkpt lat="45.57285" lon="6.79306">
        <ele>1946.796</ele>
        <time>2020-12-13T08:28:20Z</time>
      </trkpt>
      <trkpt lat="45.57281" lon="6.79313">
        <ele>1946.444</ele>
        <time>2020-12-13T08:28:30Z</time>
      </trkpt>
      <trkpt lat="45.57274" lon="6.79317">
        <ele>1944.127</ele>
        <time>2020-12-13T08:28:40Z</time>
      </trkpt>
      <trkpt lat="45.57268" lon="6.79318">
        <ele>1942.508</ele>
        <time>2020-12-13T08:28:51Z</time>
      </trkpt>
      <trkpt lat="45.57261" lon="6.79317">
        <ele>1941.878</ele>
        <time>2020-12-13T08:29:02Z</time>
      </trkpt>
      <trkpt lat="45.57254" lon="6.79316">
        <ele>1942.891</ele>
        <time>2020-12-13T08:29:11Z</time>
      </trkpt>
      <trkpt lat="45.57248" lon="6.79314">
        <ele>1945.064</ele>
        <time>2020-12-13T08:29:20Z</time>
      </trkpt>
      <trkpt lat="45.57241" lon="6.79312">
        <ele>1946.722</ele>
        <time>2020-12-13T08:29:32Z</time>
      </trkpt>
      <trkpt lat="45.57234" lon="6.79312">
        <ele>1944.393</ele>
        <time>2020-12-13T08:29:42Z</time>
      </trkpt>
      <trkpt lat="45.57228" lon="6.79311">
        <ele>1942.848</ele>
        <time>2020-12-13T08:29:49Z</time>
      </trkpt>
      <trkpt lat="45.57221" lon="6.79309">
        <ele>1945.5</ele>
        <time>2020-12-13T08:29:56Z</time>
      </trkpt>
      <trkpt lat="45.57214" lon="6.79308">
        <ele>1946.783</ele>
        <time>2020-12-13T08:30:04Z</time>
      </trkpt>
      <trkpt lat="45.57208" lon="6.79307">
        <ele>1947.378</ele>
        <time>2020-12-13T08:30:12Z</time>
      </trkpt>
      <trkpt lat="45.57201" lon="6.79306">
        <ele>1948.043</ele>
        <time>2020-12-13T08:30:22Z</time>
      </trkpt>
      <trkpt lat="45.57194" lon="6.79305">
        <ele>1948.964</ele>
        <time>2020-12-13T08:30:30Z</time>
      </trkpt>
      <trkpt lat="45.57188" lon="6.79302">
        <ele>1948.9</ele>
        <time>2020-12-13T08:30:39Z</time>
      </trkpt>
      <trkpt lat="45.57181" lon="6.79302">
        <ele>1949.885</ele>
        <time>2020-12-13T08:30:47Z</time>
      </trkpt>
      <trkpt lat="45.57174" lon="6.79302">
        <ele>1949.713</ele>
        <time>2020-12-13T08:30:56Z</time>
      </trkpt>
      <trkpt lat="45.57167" lon="6.79302">
        <ele>1951.179</ele>
        <time>2020-12-13T08:31:05Z</time>
      </trkpt>
      <trkpt lat="45.57161" lon="6.79303">
        <ele>1951.272</ele>
        <time>2020-12-13T08:31:14Z</time>
      </trkpt>
      <trkpt lat="45.57154" lon="6.79304">
        <ele>1951.427</ele>
        <time>2020-12-13T08:31:22Z</time>
      </trkpt>
      <trkpt lat="45.57147" lon="6.79305">
        <ele>1952.626</ele>
        <time>2020-12-13T08:31:30Z</time>
      </trkpt>
      <trkpt lat="45.5714" lon="6.79306">
        <ele>1953.718</ele>
        <time>2020-12-13T08:31:39Z</time>
      </trkpt>
      <trkpt lat="45.57134" lon="6.79308">
        <ele>1954.092</ele>
        <time>2020-12-13T08:31:47Z</time>
      </trkpt>
      <trkpt lat="45.57127" lon="6.79311">
        <ele>1956.74</ele>
        <time>2020-12-13T08:31:52Z</time>
      </trkpt>
      <trkpt lat="45.57121" lon="6.79314">
        <ele>1958.525</ele>
        <time>2020-12-13T08:31:59Z</time>
      </trkpt>
      <trkpt lat="45.57115" lon="6.79316">
        <ele>1957.887</ele>
        <time>2020-12-13T08:32:09Z</time>
      </trkpt>
      <trkpt lat="45.57108" lon="6.79319">
        <ele>1958.539</ele>
        <time>2020-12-13T08:32:17Z</time>
      </trkpt>
      <trkpt lat="45.57102" lon="6.79324">
        <ele>1960.855</ele>
        <time>2020-12-13T08:32:25Z</time>
      </trkpt>
      <trkpt lat="45.57096" lon="6.79326">
        <ele>1967.918</ele>
        <time>2020-12-13T08:32:37Z</time>
      </trkpt>
      <trkpt lat="45.5709" lon="6.7933">
        <ele>1970.955</ele>
        <time>2020-12-13T08:32:49Z</time>
      </trkpt>
      <trkpt lat="45.57083" lon="6.79333">
        <ele>1973.11</ele>
        <time>2020-12-13T08:33:02Z</time>
      </trkpt>
      <trkpt lat="45.57076" lon="6.79336">
        <ele>1972.865</ele>
        <time>2020-12-13T08:33:14Z</time>
      </trkpt>
      <trkpt lat="45.57077" lon="6.79345">
        <ele>1975.954</ele>
        <time>2020-12-13T08:33:36Z</time>
      </trkpt>
      <trkpt lat="45.57082" lon="6.79353">
        <ele>1977.186</ele>
        <time>2020-12-13T08:33:45Z</time>
      </trkpt>
      <trkpt lat="45.57088" lon="6.79358">
        <ele>1977.893</ele>
        <time>2020-12-13T08:33:54Z</time>
      </trkpt>
      <trkpt lat="45.57094" lon="6.79361">
        <ele>1978.321</ele>
        <time>2020-12-13T08:34:03Z</time>
      </trkpt>
      <trkpt lat="45.57101" lon="6.79362">
        <ele>1980.089</ele>
        <time>2020-12-13T08:34:11Z</time>
      </trkpt>
      <trkpt lat="45.57107" lon="6.79363">
        <ele>1982.54</ele>
        <time>2020-12-13T08:34:18Z</time>
      </trkpt>
      <trkpt lat="45.57114" lon="6.79366">
        <ele>1982.804</ele>
        <time>2020-12-13T08:34:31Z</time>
      </trkpt>
      <trkpt lat="45.5712" lon="6.79369">
        <ele>1983.51</ele>
        <time>2020-12-13T08:34:41Z</time>
      </trkpt>
      <trkpt lat="45.57126" lon="6.79372">
        <ele>1984.863</ele>
        <time>2020-12-13T08:34:52Z</time>
      </trkpt>
      <trkpt lat="45.57132" lon="6.79377">
        <ele>1985.51</ele>
        <time>2020-12-13T08:35:03Z</time>
      </trkpt>
      <trkpt lat="45.57139" lon="6.7938">
        <ele>1987.234</ele>
        <time>2020-12-13T08:35:13Z</time>
      </trkpt>
      <trkpt lat="45.57146" lon="6.79382">
        <ele>1988.923</ele>
        <time>2020-12-13T08:35:24Z</time>
      </trkpt>
      <trkpt lat="45.57152" lon="6.79385">
        <ele>1990.635</ele>
        <time>2020-12-13T08:35:34Z</time>
      </trkpt>
      <trkpt lat="45.57159" lon="6.79389">
        <ele>1993.254</ele>
        <time>2020-12-13T08:35:39Z</time>
      </trkpt>
      <trkpt lat="45.57165" lon="6.79392">
        <ele>1994.887</ele>
        <time>2020-12-13T08:35:50Z</time>
      </trkpt>
      <trkpt lat="45.57171" lon="6.79398">
        <ele>1995.104</ele>
        <time>2020-12-13T08:36:08Z</time>
      </trkpt>
      <trkpt lat="45.57176" lon="6.79404">
        <ele>1995.569</ele>
        <time>2020-12-13T08:36:19Z</time>
      </trkpt>
      <trkpt lat="45.57182" lon="6.79409">
        <ele>1996.105</ele>
        <time>2020-12-13T08:36:29Z</time>
      </trkpt>
      <trkpt lat="45.57187" lon="6.79415">
        <ele>1996.105</ele>
        <time>2020-12-13T08:36:39Z</time>
      </trkpt>
      <trkpt lat="45.57192" lon="6.7942">
        <ele>1996.558</ele>
        <time>2020-12-13T08:36:48Z</time>
      </trkpt>
      <trkpt lat="45.57198" lon="6.79425">
        <ele>1996.65</ele>
        <time>2020-12-13T08:36:57Z</time>
      </trkpt>
      <trkpt lat="45.57204" lon="6.79431">
        <ele>1997.664</ele>
        <time>2020-12-13T08:37:06Z</time>
      </trkpt>
      <trkpt lat="45.5721" lon="6.79435">
        <ele>1999.657</ele>
        <time>2020-12-13T08:37:15Z</time>
      </trkpt>
      <trkpt lat="45.57216" lon="6.79435">
        <ele>1999.737</ele>
        <time>2020-12-13T08:37:52Z</time>
      </trkpt>
      <trkpt lat="45.57219" lon="6.79444">
        <ele>1999.159</ele>
        <time>2020-12-13T08:39:29Z</time>
      </trkpt>
      <trkpt lat="45.57223" lon="6.79451">
        <ele>2000.408</ele>
        <time>2020-12-13T08:39:40Z</time>
      </trkpt>
      <trkpt lat="45.5723" lon="6.79452">
        <ele>2001.828</ele>
        <time>2020-12-13T08:39:49Z</time>
      </trkpt>
      <trkpt lat="45.57236" lon="6.79454">
        <ele>2003.309</ele>
        <time>2020-12-13T08:40:00Z</time>
      </trkpt>
      <trkpt lat="45.57242" lon="6.79458">
        <ele>2003.346</ele>
        <time>2020-12-13T08:40:09Z</time>
      </trkpt>
      <trkpt lat="45.57249" lon="6.7946">
        <ele>2003.857</ele>
        <time>2020-12-13T08:40:18Z</time>
      </trkpt>
      <trkpt lat="45.57255" lon="6.79463">
        <ele>2004.328</ele>
        <time>2020-12-13T08:40:27Z</time>
      </trkpt>
      <trkpt lat="45.57261" lon="6.79465">
        <ele>2006.375</ele>
        <time>2020-12-13T08:40:36Z</time>
      </trkpt>
      <trkpt lat="45.57268" lon="6.79467">
        <ele>2007.375</ele>
        <time>2020-12-13T08:40:46Z</time>
      </trkpt>
      <trkpt lat="45.57274" lon="6.7947">
        <ele>2006.924</ele>
        <time>2020-12-13T08:40:56Z</time>
      </trkpt>
      <trkpt lat="45.57281" lon="6.79473">
        <ele>2007.486</ele>
        <time>2020-12-13T08:41:06Z</time>
      </trkpt>
      <trkpt lat="45.57287" lon="6.79476">
        <ele>2007.884</ele>
        <time>2020-12-13T08:41:16Z</time>
      </trkpt>
      <trkpt lat="45.57293" lon="6.79479">
        <ele>2007.372</ele>
        <time>2020-12-13T08:41:26Z</time>
      </trkpt>
      <trkpt lat="45.573" lon="6.79483">
        <ele>2007.985</ele>
        <time>2020-12-13T08:41:35Z</time>
      </trkpt>
      <trkpt lat="45.57306" lon="6.79487">
        <ele>2008.501</ele>
        <time>2020-12-13T08:41:44Z</time>
      </trkpt>
      <trkpt lat="45.57313" lon="6.79491">
        <ele>2009.793</ele>
        <time>2020-12-13T08:41:53Z</time>
      </trkpt>
      <trkpt lat="45.57319" lon="6.79494">
        <ele>2010.953</ele>
        <time>2020-12-13T08:42:01Z</time>
      </trkpt>
      <trkpt lat="45.57325" lon="6.79497">
        <ele>2012.697</ele>
        <time>2020-12-13T08:42:09Z</time>
      </trkpt>
      <trkpt lat="45.57331" lon="6.79503">
        <ele>2013.588</ele>
        <time>2020-12-13T08:42:19Z</time>
      </trkpt>
      <trkpt lat="45.57336" lon="6.79508">
        <ele>2014.81</ele>
        <time>2020-12-13T08:42:29Z</time>
      </trkpt>
      <trkpt lat="45.57342" lon="6.79513">
        <ele>2015.245</ele>
        <time>2020-12-13T08:42:41Z</time>
      </trkpt>
      <trkpt lat="45.57346" lon="6.79522">
        <ele>2014.66</ele>
        <time>2020-12-13T08:42:50Z</time>
      </trkpt>
      <trkpt lat="45.57352" lon="6.79529">
        <ele>2015.366</ele>
        <time>2020-12-13T08:42:59Z</time>
      </trkpt>
      <trkpt lat="45.57359" lon="6.79533">
        <ele>2017.849</ele>
        <time>2020-12-13T08:43:04Z</time>
      </trkpt>
      <trkpt lat="45.57364" lon="6.79539">
        <ele>2017.511</ele>
        <time>2020-12-13T08:43:15Z</time>
      </trkpt>
      <trkpt lat="45.57369" lon="6.79546">
        <ele>2017.784</ele>
        <time>2020-12-13T08:43:26Z</time>
      </trkpt>
      <trkpt lat="45.57376" lon="6.7955">
        <ele>2019.04</ele>
        <time>2020-12-13T08:43:38Z</time>
      </trkpt>
      <trkpt lat="45.57382" lon="6.79548">
        <ele>2019.052</ele>
        <time>2020-12-13T08:43:47Z</time>
      </trkpt>
      <trkpt lat="45.57389" lon="6.79546">
        <ele>2018.698</ele>
        <time>2020-12-13T08:43:55Z</time>
      </trkpt>
      <trkpt lat="45.57396" lon="6.79545">
        <ele>2018.964</ele>
        <time>2020-12-13T08:44:03Z</time>
      </trkpt>
      <trkpt lat="45.57403" lon="6.79545">
        <ele>2018.359</ele>
        <time>2020-12-13T08:44:11Z</time>
      </trkpt>
      <trkpt lat="45.5741" lon="6.79546">
        <ele>2018.725</ele>
        <time>2020-12-13T08:44:20Z</time>
      </trkpt>
      <trkpt lat="45.57417" lon="6.79547">
        <ele>2019.342</ele>
        <time>2020-12-13T08:44:31Z</time>
      </trkpt>
      <trkpt lat="45.57424" lon="6.79547">
        <ele>2020.894</ele>
        <time>2020-12-13T08:44:45Z</time>
      </trkpt>
      <trkpt lat="45.5743" lon="6.79547">
        <ele>2021.77</ele>
        <time>2020-12-13T08:44:56Z</time>
      </trkpt>
      <trkpt lat="45.57437" lon="6.7955">
        <ele>2021.535</ele>
        <time>2020-12-13T08:45:06Z</time>
      </trkpt>
      <trkpt lat="45.57443" lon="6.79551">
        <ele>2023.239</ele>
        <time>2020-12-13T08:45:15Z</time>
      </trkpt>
      <trkpt lat="45.5745" lon="6.79553">
        <ele>2023.613</ele>
        <time>2020-12-13T08:45:26Z</time>
      </trkpt>
      <trkpt lat="45.57457" lon="6.79557">
        <ele>2023.861</ele>
        <time>2020-12-13T08:45:38Z</time>
      </trkpt>
      <trkpt lat="45.57463" lon="6.79561">
        <ele>2024.96</ele>
        <time>2020-12-13T08:45:49Z</time>
      </trkpt>
      <trkpt lat="45.5747" lon="6.79564">
        <ele>2025.717</ele>
        <time>2020-12-13T08:45:58Z</time>
      </trkpt>
      <trkpt lat="45.57476" lon="6.79567">
        <ele>2025.922</ele>
        <time>2020-12-13T08:46:07Z</time>
      </trkpt>
      <trkpt lat="45.57483" lon="6.7957">
        <ele>2027.661</ele>
        <time>2020-12-13T08:46:16Z</time>
      </trkpt>
      <trkpt lat="45.57489" lon="6.79575">
        <ele>2028.353</ele>
        <time>2020-12-13T08:46:28Z</time>
      </trkpt>
      <trkpt lat="45.57495" lon="6.79581">
        <ele>2029.649</ele>
        <time>2020-12-13T08:46:39Z</time>
      </trkpt>
      <trkpt lat="45.57499" lon="6.79587">
        <ele>2030.34</ele>
        <time>2020-12-13T08:46:48Z</time>
      </trkpt>
      <trkpt lat="45.57504" lon="6.79593">
        <ele>2032.377</ele>
        <time>2020-12-13T08:46:57Z</time>
      </trkpt>
      <trkpt lat="45.5751" lon="6.79599">
        <ele>2033.389</ele>
        <time>2020-12-13T08:47:06Z</time>
      </trkpt>
      <trkpt lat="45.57515" lon="6.79606">
        <ele>2034.024</ele>
        <time>2020-12-13T08:47:15Z</time>
      </trkpt>
      <trkpt lat="45.5752" lon="6.79613">
        <ele>2034.072</ele>
        <time>2020-12-13T08:47:24Z</time>
      </trkpt>
      <trkpt lat="45.57525" lon="6.7962">
        <ele>2033.451</ele>
        <time>2020-12-13T08:47:32Z</time>
      </trkpt>
      <trkpt lat="45.5753" lon="6.79625">
        <ele>2036.051</ele>
        <time>2020-12-13T08:47:37Z</time>
      </trkpt>
      <trkpt lat="45.57534" lon="6.79632">
        <ele>2035.606</ele>
        <time>2020-12-13T08:47:48Z</time>
      </trkpt>
      <trkpt lat="45.57538" lon="6.7964">
        <ele>2035.227</ele>
        <time>2020-12-13T08:47:58Z</time>
      </trkpt>
      <trkpt lat="45.57542" lon="6.79648">
        <ele>2033.986</ele>
        <time>2020-12-13T08:48:07Z</time>
      </trkpt>
      <trkpt lat="45.57547" lon="6.79654">
        <ele>2034.114</ele>
        <time>2020-12-13T08:48:16Z</time>
      </trkpt>
      <trkpt lat="45.57552" lon="6.7966">
        <ele>2033.926</ele>
        <time>2020-12-13T08:48:25Z</time>
      </trkpt>
      <trkpt lat="45.57559" lon="6.79665">
        <ele>2037.158</ele>
        <time>2020-12-13T08:48:31Z</time>
      </trkpt>
      <trkpt lat="45.57565" lon="6.7967">
        <ele>2039.311</ele>
        <time>2020-12-13T08:48:38Z</time>
      </trkpt>
      <trkpt lat="45.57569" lon="6.79678">
        <ele>2040.93</ele>
        <time>2020-12-13T08:48:53Z</time>
      </trkpt>
      <trkpt lat="45.57572" lon="6.79686">
        <ele>2041.595</ele>
        <time>2020-12-13T08:49:11Z</time>
      </trkpt>
      <trkpt lat="45.57575" lon="6.79695">
        <ele>2043.019</ele>
        <time>2020-12-13T08:49:29Z</time>
      </trkpt>
      <trkpt lat="45.57579" lon="6.79703">
        <ele>2045.167</ele>
        <time>2020-12-13T08:49:43Z</time>
      </trkpt>
      <trkpt lat="45.57582" lon="6.79711">
        <ele>2046.111</ele>
        <time>2020-12-13T08:49:57Z</time>
      </trkpt>
      <trkpt lat="45.57585" lon="6.7972">
        <ele>2049.608</ele>
        <time>2020-12-13T08:50:13Z</time>
      </trkpt>
      <trkpt lat="45.57588" lon="6.79728">
        <ele>2051.194</ele>
        <time>2020-12-13T08:50:28Z</time>
      </trkpt>
      <trkpt lat="45.5759" lon="6.79737">
        <ele>2053.81</ele>
        <time>2020-12-13T08:50:44Z</time>
      </trkpt>
      <trkpt lat="45.57593" lon="6.79746">
        <ele>2055.745</ele>
        <time>2020-12-13T08:50:59Z</time>
      </trkpt>
      <trkpt lat="45.57595" lon="6.79755">
        <ele>2058.615</ele>
        <time>2020-12-13T08:51:14Z</time>
      </trkpt>
      <trkpt lat="45.57594" lon="6.79765">
        <ele>2060.535</ele>
        <time>2020-12-13T08:51:30Z</time>
      </trkpt>
      <trkpt lat="45.57592" lon="6.79774">
        <ele>2063.298</ele>
        <time>2020-12-13T08:51:53Z</time>
      </trkpt>
      <trkpt lat="45.57591" lon="6.79783">
        <ele>2065.642</ele>
        <time>2020-12-13T08:52:06Z</time>
      </trkpt>
      <trkpt lat="45.5759" lon="6.79792">
        <ele>2067.285</ele>
        <time>2020-12-13T08:52:20Z</time>
      </trkpt>
      <trkpt lat="45.5759" lon="6.79802">
        <ele>2068.569</ele>
        <time>2020-12-13T08:52:34Z</time>
      </trkpt>
      <trkpt lat="45.5759" lon="6.79811">
        <ele>2069.963</ele>
        <time>2020-12-13T08:52:49Z</time>
      </trkpt>
      <trkpt lat="45.5759" lon="6.7982">
        <ele>2072.58</ele>
        <time>2020-12-13T08:53:03Z</time>
      </trkpt>
      <trkpt lat="45.57589" lon="6.79829">
        <ele>2074.875</ele>
        <time>2020-12-13T08:53:17Z</time>
      </trkpt>
      <trkpt lat="45.57589" lon="6.79839">
        <ele>2076.484</ele>
        <time>2020-12-13T08:53:34Z</time>
      </trkpt>
      <trkpt lat="45.57587" lon="6.79848">
        <ele>2078.197</ele>
        <time>2020-12-13T08:53:50Z</time>
      </trkpt>
      <trkpt lat="45.57587" lon="6.79858">
        <ele>2080.428</ele>
        <time>2020-12-13T08:54:05Z</time>
      </trkpt>
      <trkpt lat="45.57585" lon="6.79867">
        <ele>2082.242</ele>
        <time>2020-12-13T08:54:20Z</time>
      </trkpt>
      <trkpt lat="45.57584" lon="6.79877">
        <ele>2083.989</ele>
        <time>2020-12-13T08:54:34Z</time>
      </trkpt>
      <trkpt lat="45.57583" lon="6.79886">
        <ele>2085.524</ele>
        <time>2020-12-13T08:54:49Z</time>
      </trkpt>
      <trkpt lat="45.57582" lon="6.79896">
        <ele>2086.78</ele>
        <time>2020-12-13T08:55:03Z</time>
      </trkpt>
      <trkpt lat="45.57579" lon="6.79904">
        <ele>2088.097</ele>
        <time>2020-12-13T08:55:19Z</time>
      </trkpt>
      <trkpt lat="45.57579" lon="6.79914">
        <ele>2089.91</ele>
        <time>2020-12-13T08:55:35Z</time>
      </trkpt>
      <trkpt lat="45.57578" lon="6.79923">
        <ele>2091.036</ele>
        <time>2020-12-13T08:55:53Z</time>
      </trkpt>
      <trkpt lat="45.57578" lon="6.79933">
        <ele>2092.962</ele>
        <time>2020-12-13T08:56:38Z</time>
      </trkpt>
      <trkpt lat="45.57576" lon="6.79942">
        <ele>2095.582</ele>
        <time>2020-12-13T08:56:53Z</time>
      </trkpt>
      <trkpt lat="45.57575" lon="6.79951">
        <ele>2097.603</ele>
        <time>2020-12-13T08:57:07Z</time>
      </trkpt>
      <trkpt lat="45.57573" lon="6.79961">
        <ele>2099.453</ele>
        <time>2020-12-13T08:57:22Z</time>
      </trkpt>
      <trkpt lat="45.57571" lon="6.7997">
        <ele>2101.778</ele>
        <time>2020-12-13T08:57:41Z</time>
      </trkpt>
      <trkpt lat="45.57569" lon="6.79979">
        <ele>2103.709</ele>
        <time>2020-12-13T08:57:56Z</time>
      </trkpt>
      <trkpt lat="45.57567" lon="6.79988">
        <ele>2105.491</ele>
        <time>2020-12-13T08:58:13Z</time>
      </trkpt>
      <trkpt lat="45.57566" lon="6.79998">
        <ele>2107.429</ele>
        <time>2020-12-13T08:58:28Z</time>
      </trkpt>
      <trkpt lat="45.57564" lon="6.80007">
        <ele>2108.953</ele>
        <time>2020-12-13T08:58:44Z</time>
      </trkpt>
      <trkpt lat="45.57563" lon="6.80016">
        <ele>2111.154</ele>
        <time>2020-12-13T08:58:59Z</time>
      </trkpt>
      <trkpt lat="45.57562" lon="6.80025">
        <ele>2112.733</ele>
        <time>2020-12-13T08:59:15Z</time>
      </trkpt>
      <trkpt lat="45.57561" lon="6.80035">
        <ele>2114.415</ele>
        <time>2020-12-13T08:59:29Z</time>
      </trkpt>
      <trkpt lat="45.57561" lon="6.80045">
        <ele>2115.471</ele>
        <time>2020-12-13T08:59:43Z</time>
      </trkpt>
      <trkpt lat="45.5756" lon="6.80054">
        <ele>2116.3</ele>
        <time>2020-12-13T08:59:57Z</time>
      </trkpt>
      <trkpt lat="45.57559" lon="6.80064">
        <ele>2117.736</ele>
        <time>2020-12-13T09:00:44Z</time>
      </trkpt>
      <trkpt lat="45.57559" lon="6.80073">
        <ele>2119.316</ele>
        <time>2020-12-13T09:00:59Z</time>
      </trkpt>
      <trkpt lat="45.5756" lon="6.80082">
        <ele>2120.954</ele>
        <time>2020-12-13T09:01:13Z</time>
      </trkpt>
      <trkpt lat="45.57561" lon="6.80092">
        <ele>2123.839</ele>
        <time>2020-12-13T09:01:31Z</time>
      </trkpt>
      <trkpt lat="45.57561" lon="6.80101">
        <ele>2125.345</ele>
        <time>2020-12-13T09:01:46Z</time>
      </trkpt>
      <trkpt lat="45.57559" lon="6.8011">
        <ele>2125.409</ele>
        <time>2020-12-13T09:02:01Z</time>
      </trkpt>
      <trkpt lat="45.57558" lon="6.80119">
        <ele>2127.779</ele>
        <time>2020-12-13T09:02:13Z</time>
      </trkpt>
      <trkpt lat="45.57556" lon="6.80129">
        <ele>2129.685</ele>
        <time>2020-12-13T09:02:40Z</time>
      </trkpt>
      <trkpt lat="45.57554" lon="6.80139">
        <ele>2130.665</ele>
        <time>2020-12-13T09:02:53Z</time>
      </trkpt>
      <trkpt lat="45.57553" lon="6.80148">
        <ele>2132.579</ele>
        <time>2020-12-13T09:03:05Z</time>
      </trkpt>
      <trkpt lat="45.57554" lon="6.80157">
        <ele>2133.121</ele>
        <time>2020-12-13T09:03:16Z</time>
      </trkpt>
      <trkpt lat="45.57555" lon="6.80167">
        <ele>2134.444</ele>
        <time>2020-12-13T09:03:28Z</time>
      </trkpt>
      <trkpt lat="45.57557" lon="6.80176">
        <ele>2135.46</ele>
        <time>2020-12-13T09:03:39Z</time>
      </trkpt>
      <trkpt lat="45.5756" lon="6.80185">
        <ele>2137.473</ele>
        <time>2020-12-13T09:03:50Z</time>
      </trkpt>
      <trkpt lat="45.57563" lon="6.80193">
        <ele>2139.502</ele>
        <time>2020-12-13T09:04:02Z</time>
      </trkpt>
      <trkpt lat="45.57567" lon="6.80201">
        <ele>2139.719</ele>
        <time>2020-12-13T09:04:13Z</time>
      </trkpt>
      <trkpt lat="45.5757" lon="6.80209">
        <ele>2140.223</ele>
        <time>2020-12-13T09:04:38Z</time>
      </trkpt>
      <trkpt lat="45.57573" lon="6.80218">
        <ele>2139.715</ele>
        <time>2020-12-13T09:04:49Z</time>
      </trkpt>
      <trkpt lat="45.57575" lon="6.80227">
        <ele>2140.954</ele>
        <time>2020-12-13T09:04:59Z</time>
      </trkpt>
      <trkpt lat="45.57577" lon="6.80237">
        <ele>2141.878</ele>
        <time>2020-12-13T09:05:10Z</time>
      </trkpt>
      <trkpt lat="45.57581" lon="6.80245">
        <ele>2142.684</ele>
        <time>2020-12-13T09:05:21Z</time>
      </trkpt>
      <trkpt lat="45.57582" lon="6.80255">
        <ele>2144.278</ele>
        <time>2020-12-13T09:05:32Z</time>
      </trkpt>
      <trkpt lat="45.57584" lon="6.80264">
        <ele>2145.234</ele>
        <time>2020-12-13T09:05:43Z</time>
      </trkpt>
      <trkpt lat="45.57586" lon="6.80273">
        <ele>2146.558</ele>
        <time>2020-12-13T09:05:53Z</time>
      </trkpt>
      <trkpt lat="45.57588" lon="6.80283">
        <ele>2148.197</ele>
        <time>2020-12-13T09:06:04Z</time>
      </trkpt>
      <trkpt lat="45.57589" lon="6.80292">
        <ele>2150.003</ele>
        <time>2020-12-13T09:06:17Z</time>
      </trkpt>
      <trkpt lat="45.5759" lon="6.80301">
        <ele>2151.529</ele>
        <time>2020-12-13T09:06:31Z</time>
      </trkpt>
      <trkpt lat="45.57591" lon="6.80311">
        <ele>2153.636</ele>
        <time>2020-12-13T09:06:44Z</time>
      </trkpt>
      <trkpt lat="45.57592" lon="6.8032">
        <ele>2156.089</ele>
        <time>2020-12-13T09:06:59Z</time>
      </trkpt>
      <trkpt lat="45.57593" lon="6.8033">
        <ele>2157.378</ele>
        <time>2020-12-13T09:07:15Z</time>
      </trkpt>
      <trkpt lat="45.57592" lon="6.80339">
        <ele>2159.274</ele>
        <time>2020-12-13T09:07:32Z</time>
      </trkpt>
      <trkpt lat="45.57591" lon="6.80349">
        <ele>2161.866</ele>
        <time>2020-12-13T09:07:47Z</time>
      </trkpt>
      <trkpt lat="45.5759" lon="6.80358">
        <ele>2163.297</ele>
        <time>2020-12-13T09:08:00Z</time>
      </trkpt>
      <trkpt lat="45.57589" lon="6.80368">
        <ele>2165.894</ele>
        <time>2020-12-13T09:08:15Z</time>
      </trkpt>
      <trkpt lat="45.57587" lon="6.80377">
        <ele>2167.707</ele>
        <time>2020-12-13T09:08:32Z</time>
      </trkpt>
      <trkpt lat="45.57585" lon="6.80386">
        <ele>2169.863</ele>
        <time>2020-12-13T09:08:48Z</time>
      </trkpt>
      <trkpt lat="45.57585" lon="6.80396">
        <ele>2171.666</ele>
        <time>2020-12-13T09:09:03Z</time>
      </trkpt>
      <trkpt lat="45.57582" lon="6.80404">
        <ele>2174.024</ele>
        <time>2020-12-13T09:09:19Z</time>
      </trkpt>
      <trkpt lat="45.5758" lon="6.80413">
        <ele>2176.41</ele>
        <time>2020-12-13T09:09:34Z</time>
      </trkpt>
      <trkpt lat="45.57578" lon="6.80422">
        <ele>2178.258</ele>
        <time>2020-12-13T09:09:50Z</time>
      </trkpt>
      <trkpt lat="45.57577" lon="6.80431">
        <ele>2180.507</ele>
        <time>2020-12-13T09:10:08Z</time>
      </trkpt>
      <trkpt lat="45.57575" lon="6.8044">
        <ele>2181.342</ele>
        <time>2020-12-13T09:10:27Z</time>
      </trkpt>
      <trkpt lat="45.57572" lon="6.80449">
        <ele>2182.527</ele>
        <time>2020-12-13T09:10:45Z</time>
      </trkpt>
      <trkpt lat="45.57571" lon="6.80458">
        <ele>2185.037</ele>
        <time>2020-12-13T09:11:01Z</time>
      </trkpt>
      <trkpt lat="45.57568" lon="6.80468">
        <ele>2187.745</ele>
        <time>2020-12-13T09:11:18Z</time>
      </trkpt>
      <trkpt lat="45.57567" lon="6.80477">
        <ele>2189.685</ele>
        <time>2020-12-13T09:11:31Z</time>
      </trkpt>
      <trkpt lat="45.57566" lon="6.80487">
        <ele>2191.281</ele>
        <time>2020-12-13T09:11:45Z</time>
      </trkpt>
      <trkpt lat="45.57564" lon="6.80496">
        <ele>2192.314</ele>
        <time>2020-12-13T09:11:57Z</time>
      </trkpt>
      <trkpt lat="45.57562" lon="6.80505">
        <ele>2192.172</ele>
        <time>2020-12-13T09:12:09Z</time>
      </trkpt>
      <trkpt lat="45.5756" lon="6.80515">
        <ele>2193.118</ele>
        <time>2020-12-13T09:12:21Z</time>
      </trkpt>
      <trkpt lat="45.5756" lon="6.80524">
        <ele>2194.484</ele>
        <time>2020-12-13T09:12:37Z</time>
      </trkpt>
      <trkpt lat="45.57557" lon="6.80533">
        <ele>2194.358</ele>
        <time>2020-12-13T09:14:26Z</time>
      </trkpt>
      <trkpt lat="45.57557" lon="6.80543">
        <ele>2194.179</ele>
        <time>2020-12-13T09:14:37Z</time>
      </trkpt>
      <trkpt lat="45.57556" lon="6.80553">
        <ele>2193.34</ele>
        <time>2020-12-13T09:14:48Z</time>
      </trkpt>
      <trkpt lat="45.57554" lon="6.80562">
        <ele>2191.408</ele>
        <time>2020-12-13T09:15:00Z</time>
      </trkpt>
      <trkpt lat="45.57551" lon="6.80571">
        <ele>2193.574</ele>
        <time>2020-12-13T09:15:10Z</time>
      </trkpt>
      <trkpt lat="45.57549" lon="6.8058">
        <ele>2195.197</ele>
        <time>2020-12-13T09:15:20Z</time>
      </trkpt>
      <trkpt lat="45.57546" lon="6.80589">
        <ele>2195.765</ele>
        <time>2020-12-13T09:15:31Z</time>
      </trkpt>
      <trkpt lat="45.57543" lon="6.80598">
        <ele>2197.256</ele>
        <time>2020-12-13T09:15:42Z</time>
      </trkpt>
      <trkpt lat="45.57542" lon="6.80608">
        <ele>2197.862</ele>
        <time>2020-12-13T09:15:52Z</time>
      </trkpt>
      <trkpt lat="45.5754" lon="6.80617">
        <ele>2200.868</ele>
        <time>2020-12-13T09:16:04Z</time>
      </trkpt>
      <trkpt lat="45.57538" lon="6.80626">
        <ele>2204.236</ele>
        <time>2020-12-13T09:16:17Z</time>
      </trkpt>
      <trkpt lat="45.57536" lon="6.80635">
        <ele>2205.67</ele>
        <time>2020-12-13T09:16:31Z</time>
      </trkpt>
      <trkpt lat="45.57535" lon="6.80645">
        <ele>2207.582</ele>
        <time>2020-12-13T09:16:45Z</time>
      </trkpt>
      <trkpt lat="45.57533" lon="6.80654">
        <ele>2211.29</ele>
        <time>2020-12-13T09:17:01Z</time>
      </trkpt>
      <trkpt lat="45.57533" lon="6.80664">
        <ele>2213.698</ele>
        <time>2020-12-13T09:17:17Z</time>
      </trkpt>
      <trkpt lat="45.57533" lon="6.80674">
        <ele>2216.944</ele>
        <time>2020-12-13T09:17:35Z</time>
      </trkpt>
      <trkpt lat="45.57536" lon="6.80683">
        <ele>2218.264</ele>
        <time>2020-12-13T09:17:54Z</time>
      </trkpt>
      <trkpt lat="45.57538" lon="6.80692">
        <ele>2219.027</ele>
        <time>2020-12-13T09:18:07Z</time>
      </trkpt>
      <trkpt lat="45.57536" lon="6.807">
        <ele>2221.682</ele>
        <time>2020-12-13T09:18:18Z</time>
      </trkpt>
      <trkpt lat="45.57531" lon="6.80707">
        <ele>2224.133</ele>
        <time>2020-12-13T09:18:39Z</time>
      </trkpt>
      <trkpt lat="45.57529" lon="6.80717">
        <ele>2226.868</ele>
        <time>2020-12-13T09:18:55Z</time>
      </trkpt>
      <trkpt lat="45.57524" lon="6.80723">
        <ele>2228.136</ele>
        <time>2020-12-13T09:19:22Z</time>
      </trkpt>
      <trkpt lat="45.57519" lon="6.80729">
        <ele>2228.833</ele>
        <time>2020-12-13T09:19:40Z</time>
      </trkpt>
      <trkpt lat="45.57514" lon="6.80735">
        <ele>2229.589</ele>
        <time>2020-12-13T09:20:48Z</time>
      </trkpt>
      <trkpt lat="45.5751" lon="6.80742">
        <ele>2229.591</ele>
        <time>2020-12-13T09:21:01Z</time>
      </trkpt>
      <trkpt lat="45.57505" lon="6.80749">
        <ele>2230.828</ele>
        <time>2020-12-13T09:21:20Z</time>
      </trkpt>
      <trkpt lat="45.57499" lon="6.80754">
        <ele>2232.967</ele>
        <time>2020-12-13T09:21:37Z</time>
      </trkpt>
      <trkpt lat="45.57494" lon="6.80759">
        <ele>2236.337</ele>
        <time>2020-12-13T09:22:09Z</time>
      </trkpt>
      <trkpt lat="45.57488" lon="6.80764">
        <ele>2236.487</ele>
        <time>2020-12-13T09:22:20Z</time>
      </trkpt>
      <trkpt lat="45.57482" lon="6.80768">
        <ele>2236.374</ele>
        <time>2020-12-13T09:22:37Z</time>
      </trkpt>
      <trkpt lat="45.57476" lon="6.80772">
        <ele>2238.561</ele>
        <time>2020-12-13T09:22:55Z</time>
      </trkpt>
      <trkpt lat="45.5747" lon="6.80777">
        <ele>2241.836</ele>
        <time>2020-12-13T09:23:08Z</time>
      </trkpt>
      <trkpt lat="45.57465" lon="6.80782">
        <ele>2244.605</ele>
        <time>2020-12-13T09:23:20Z</time>
      </trkpt>
      <trkpt lat="45.57459" lon="6.80786">
        <ele>2247.468</ele>
        <time>2020-12-13T09:23:35Z</time>
      </trkpt>
      <trkpt lat="45.57452" lon="6.80789">
        <ele>2250.529</ele>
        <time>2020-12-13T09:23:58Z</time>
      </trkpt>
      <trkpt lat="45.57447" lon="6.80795">
        <ele>2251.218</ele>
        <time>2020-12-13T09:24:26Z</time>
      </trkpt>
      <trkpt lat="45.57443" lon="6.80803">
        <ele>2250.716</ele>
        <time>2020-12-13T09:25:33Z</time>
      </trkpt>
      <trkpt lat="45.57439" lon="6.8081">
        <ele>2252.109</ele>
        <time>2020-12-13T09:25:47Z</time>
      </trkpt>
      <trkpt lat="45.57434" lon="6.80817">
        <ele>2253.186</ele>
        <time>2020-12-13T09:26:04Z</time>
      </trkpt>
      <trkpt lat="45.57429" lon="6.80823">
        <ele>2253.631</ele>
        <time>2020-12-13T09:26:28Z</time>
      </trkpt>
      <trkpt lat="45.57423" lon="6.80827">
        <ele>2256.377</ele>
        <time>2020-12-13T09:26:47Z</time>
      </trkpt>
      <trkpt lat="45.57417" lon="6.80829">
        <ele>2258.026</ele>
        <time>2020-12-13T09:27:07Z</time>
      </trkpt>
      <trkpt lat="45.5741" lon="6.80829">
        <ele>2260.199</ele>
        <time>2020-12-13T09:27:26Z</time>
      </trkpt>
      <trkpt lat="45.57404" lon="6.80825">
        <ele>2261.53</ele>
        <time>2020-12-13T09:27:43Z</time>
      </trkpt>
      <trkpt lat="45.57398" lon="6.80821">
        <ele>2264.259</ele>
        <time>2020-12-13T09:28:04Z</time>
      </trkpt>
      <trkpt lat="45.57391" lon="6.8082">
        <ele>2266.879</ele>
        <time>2020-12-13T09:28:25Z</time>
      </trkpt>
      <trkpt lat="45.57385" lon="6.80817">
        <ele>2268.293</ele>
        <time>2020-12-13T09:28:42Z</time>
      </trkpt>
      <trkpt lat="45.57378" lon="6.80817">
        <ele>2270.372</ele>
        <time>2020-12-13T09:29:19Z</time>
      </trkpt>
      <trkpt lat="45.57372" lon="6.80819">
        <ele>2272.327</ele>
        <time>2020-12-13T09:29:35Z</time>
      </trkpt>
      <trkpt lat="45.57365" lon="6.8082">
        <ele>2274.19</ele>
        <time>2020-12-13T09:29:53Z</time>
      </trkpt>
      <trkpt lat="45.57359" lon="6.80824">
        <ele>2276.156</ele>
        <time>2020-12-13T09:30:10Z</time>
      </trkpt>
      <trkpt lat="45.57352" lon="6.80827">
        <ele>2277.366</ele>
        <time>2020-12-13T09:30:24Z</time>
      </trkpt>
      <trkpt lat="45.57345" lon="6.80829">
        <ele>2279.318</ele>
        <time>2020-12-13T09:30:41Z</time>
      </trkpt>
      <trkpt lat="45.57338" lon="6.8083">
        <ele>2282.035</ele>
        <time>2020-12-13T09:30:54Z</time>
      </trkpt>
      <trkpt lat="45.57332" lon="6.80832">
        <ele>2282.9</ele>
        <time>2020-12-13T09:31:10Z</time>
      </trkpt>
      <trkpt lat="45.57325" lon="6.80833">
        <ele>2284.226</ele>
        <time>2020-12-13T09:31:24Z</time>
      </trkpt>
      <trkpt lat="45.57318" lon="6.80834">
        <ele>2285.833</ele>
        <time>2020-12-13T09:31:38Z</time>
      </trkpt>
      <trkpt lat="45.57312" lon="6.80834">
        <ele>2286.976</ele>
        <time>2020-12-13T09:31:58Z</time>
      </trkpt>
      <trkpt lat="45.57305" lon="6.80834">
        <ele>2288.216</ele>
        <time>2020-12-13T09:32:13Z</time>
      </trkpt>
      <trkpt lat="45.57298" lon="6.80836">
        <ele>2290.893</ele>
        <time>2020-12-13T09:32:30Z</time>
      </trkpt>
      <trkpt lat="45.57292" lon="6.80837">
        <ele>2292.307</ele>
        <time>2020-12-13T09:32:49Z</time>
      </trkpt>
      <trkpt lat="45.57285" lon="6.80838">
        <ele>2293.518</ele>
        <time>2020-12-13T09:33:06Z</time>
      </trkpt>
      <trkpt lat="45.57279" lon="6.80838">
        <ele>2294.336</ele>
        <time>2020-12-13T09:33:19Z</time>
      </trkpt>
      <trkpt lat="45.57272" lon="6.80837">
        <ele>2297.616</ele>
        <time>2020-12-13T09:33:35Z</time>
      </trkpt>
      <trkpt lat="45.57265" lon="6.80838">
        <ele>2298.516</ele>
        <time>2020-12-13T09:33:55Z</time>
      </trkpt>
      <trkpt lat="45.57259" lon="6.80839">
        <ele>2300.152</ele>
        <time>2020-12-13T09:34:14Z</time>
      </trkpt>
      <trkpt lat="45.57252" lon="6.8084">
        <ele>2302.839</ele>
        <time>2020-12-13T09:34:37Z</time>
      </trkpt>
      <trkpt lat="45.57245" lon="6.8084">
        <ele>2305.03</ele>
        <time>2020-12-13T09:34:57Z</time>
      </trkpt>
      <trkpt lat="45.57239" lon="6.80843">
        <ele>2308.354</ele>
        <time>2020-12-13T09:35:14Z</time>
      </trkpt>
      <trkpt lat="45.57232" lon="6.80847">
        <ele>2309.781</ele>
        <time>2020-12-13T09:35:30Z</time>
      </trkpt>
      <trkpt lat="45.57226" lon="6.80849">
        <ele>2311.307</ele>
        <time>2020-12-13T09:36:21Z</time>
      </trkpt>
      <trkpt lat="45.57219" lon="6.80849">
        <ele>2312.3</ele>
        <time>2020-12-13T09:36:34Z</time>
      </trkpt>
      <trkpt lat="45.57213" lon="6.8085">
        <ele>2312.46</ele>
        <time>2020-12-13T09:36:46Z</time>
      </trkpt>
      <trkpt lat="45.57206" lon="6.80849">
        <ele>2311.488</ele>
        <time>2020-12-13T09:37:02Z</time>
      </trkpt>
      <trkpt lat="45.57199" lon="6.80848">
        <ele>2311.876</ele>
        <time>2020-12-13T09:37:18Z</time>
      </trkpt>
      <trkpt lat="45.57193" lon="6.80847">
        <ele>2314.775</ele>
        <time>2020-12-13T09:37:33Z</time>
      </trkpt>
      <trkpt lat="45.57186" lon="6.80843">
        <ele>2318.354</ele>
        <time>2020-12-13T09:37:49Z</time>
      </trkpt>
      <trkpt lat="45.5718" lon="6.8084">
        <ele>2320.34</ele>
        <time>2020-12-13T09:38:02Z</time>
      </trkpt>
      <trkpt lat="45.57175" lon="6.80834">
        <ele>2322.466</ele>
        <time>2020-12-13T09:38:16Z</time>
      </trkpt>
      <trkpt lat="45.5717" lon="6.80827">
        <ele>2325.78</ele>
        <time>2020-12-13T09:38:31Z</time>
      </trkpt>
      <trkpt lat="45.57166" lon="6.80819">
        <ele>2326.774</ele>
        <time>2020-12-13T09:38:46Z</time>
      </trkpt>
      <trkpt lat="45.57163" lon="6.80811">
        <ele>2326.645</ele>
        <time>2020-12-13T09:39:00Z</time>
      </trkpt>
      <trkpt lat="45.57161" lon="6.80802">
        <ele>2327.564</ele>
        <time>2020-12-13T09:39:14Z</time>
      </trkpt>
      <trkpt lat="45.57155" lon="6.808">
        <ele>2331.023</ele>
        <time>2020-12-13T09:39:41Z</time>
      </trkpt>
      <trkpt lat="45.57148" lon="6.80803">
        <ele>2332.633</ele>
        <time>2020-12-13T09:40:01Z</time>
      </trkpt>
      <trkpt lat="45.57143" lon="6.80796">
        <ele>2334.25</ele>
        <time>2020-12-13T09:40:18Z</time>
      </trkpt>
      <trkpt lat="45.57141" lon="6.80787">
        <ele>2336.708</ele>
        <time>2020-12-13T09:40:33Z</time>
      </trkpt>
      <trkpt lat="45.57135" lon="6.80789">
        <ele>2339.841</ele>
        <time>2020-12-13T09:40:52Z</time>
      </trkpt>
      <trkpt lat="45.57128" lon="6.80786">
        <ele>2343.366</ele>
        <time>2020-12-13T09:41:12Z</time>
      </trkpt>
      <trkpt lat="45.57123" lon="6.8078">
        <ele>2345.664</ele>
        <time>2020-12-13T09:41:28Z</time>
      </trkpt>
      <trkpt lat="45.57117" lon="6.80776">
        <ele>2348.378</ele>
        <time>2020-12-13T09:41:47Z</time>
      </trkpt>
      <trkpt lat="45.57111" lon="6.8078">
        <ele>2349.834</ele>
        <time>2020-12-13T09:42:02Z</time>
      </trkpt>
      <trkpt lat="45.57106" lon="6.80786">
        <ele>2352.816</ele>
        <time>2020-12-13T09:42:16Z</time>
      </trkpt>
      <trkpt lat="45.57106" lon="6.80796">
        <ele>2354.32</ele>
        <time>2020-12-13T09:42:33Z</time>
      </trkpt>
      <trkpt lat="45.57107" lon="6.80806">
        <ele>2355.603</ele>
        <time>2020-12-13T09:43:04Z</time>
      </trkpt>
      <trkpt lat="45.57108" lon="6.80815">
        <ele>2356.523</ele>
        <time>2020-12-13T09:43:18Z</time>
      </trkpt>
      <trkpt lat="45.57109" lon="6.80825">
        <ele>2357.01</ele>
        <time>2020-12-13T09:43:31Z</time>
      </trkpt>
      <trkpt lat="45.57112" lon="6.80833">
        <ele>2359.153</ele>
        <time>2020-12-13T09:43:42Z</time>
      </trkpt>
      <trkpt lat="45.57114" lon="6.80842">
        <ele>2360.3</ele>
        <time>2020-12-13T09:43:55Z</time>
      </trkpt>
      <trkpt lat="45.57118" lon="6.80849">
        <ele>2361.247</ele>
        <time>2020-12-13T09:44:09Z</time>
      </trkpt>
      <trkpt lat="45.57122" lon="6.80856">
        <ele>2362.365</ele>
        <time>2020-12-13T09:44:21Z</time>
      </trkpt>
      <trkpt lat="45.57125" lon="6.80865">
        <ele>2363.253</ele>
        <time>2020-12-13T09:44:34Z</time>
      </trkpt>
      <trkpt lat="45.57124" lon="6.80875">
        <ele>2364.102</ele>
        <time>2020-12-13T09:44:47Z</time>
      </trkpt>
      <trkpt lat="45.57122" lon="6.80884">
        <ele>2365.601</ele>
        <time>2020-12-13T09:45:00Z</time>
      </trkpt>
      <trkpt lat="45.57119" lon="6.80892">
        <ele>2370.688</ele>
        <time>2020-12-13T09:45:28Z</time>
      </trkpt>
      <trkpt lat="45.57112" lon="6.80894">
        <ele>2372.029</ele>
        <time>2020-12-13T09:45:45Z</time>
      </trkpt>
      <trkpt lat="45.57106" lon="6.8089">
        <ele>2372.39</ele>
        <time>2020-12-13T09:46:12Z</time>
      </trkpt>
      <trkpt lat="45.57103" lon="6.80881">
        <ele>2373.092</ele>
        <time>2020-12-13T09:46:19Z</time>
      </trkpt>
      <trkpt lat="45.571" lon="6.80873">
        <ele>2374</ele>
        <time>2020-12-13T09:46:35Z</time>
      </trkpt>
      <trkpt lat="45.57096" lon="6.80866">
        <ele>2375.114</ele>
        <time>2020-12-13T09:46:52Z</time>
      </trkpt>
      <trkpt lat="45.57091" lon="6.8086">
        <ele>2375.903</ele>
        <time>2020-12-13T09:47:05Z</time>
      </trkpt>
      <trkpt lat="45.57086" lon="6.80853">
        <ele>2376.831</ele>
        <time>2020-12-13T09:47:18Z</time>
      </trkpt>
      <trkpt lat="45.57081" lon="6.80847">
        <ele>2377.249</ele>
        <time>2020-12-13T09:47:30Z</time>
      </trkpt>
      <trkpt lat="45.57075" lon="6.80842">
        <ele>2378.547</ele>
        <time>2020-12-13T09:47:43Z</time>
      </trkpt>
      <trkpt lat="45.57069" lon="6.80837">
        <ele>2380.041</ele>
        <time>2020-12-13T09:47:58Z</time>
      </trkpt>
      <trkpt lat="45.57064" lon="6.80831">
        <ele>2380.567</ele>
        <time>2020-12-13T09:48:13Z</time>
      </trkpt>
      <trkpt lat="45.57058" lon="6.80826">
        <ele>2381.518</ele>
        <time>2020-12-13T09:48:24Z</time>
      </trkpt>
      <trkpt lat="45.57053" lon="6.80821">
        <ele>2383.905</ele>
        <time>2020-12-13T09:48:37Z</time>
      </trkpt>
      <trkpt lat="45.57048" lon="6.80816">
        <ele>2384.482</ele>
        <time>2020-12-13T09:48:54Z</time>
      </trkpt>
      <trkpt lat="45.57042" lon="6.80809">
        <ele>2385.521</ele>
        <time>2020-12-13T09:49:07Z</time>
      </trkpt>
      <trkpt lat="45.57036" lon="6.80804">
        <ele>2386.789</ele>
        <time>2020-12-13T09:49:34Z</time>
      </trkpt>
      <trkpt lat="45.5703" lon="6.808">
        <ele>2385.693</ele>
        <time>2020-12-13T09:49:49Z</time>
      </trkpt>
      <trkpt lat="45.57024" lon="6.80806">
        <ele>2386.656</ele>
        <time>2020-12-13T09:49:59Z</time>
      </trkpt>
      <trkpt lat="45.5702" lon="6.80813">
        <ele>2389.7</ele>
        <time>2020-12-13T09:50:08Z</time>
      </trkpt>
      <trkpt lat="45.57017" lon="6.80821">
        <ele>2391.716</ele>
        <time>2020-12-13T09:50:23Z</time>
      </trkpt>
      <trkpt lat="45.57016" lon="6.80831">
        <ele>2393.398</ele>
        <time>2020-12-13T09:51:32Z</time>
      </trkpt>
      <trkpt lat="45.57017" lon="6.8084">
        <ele>2394.732</ele>
        <time>2020-12-13T09:51:51Z</time>
      </trkpt>
      <trkpt lat="45.5702" lon="6.80848">
        <ele>2396.577</ele>
        <time>2020-12-13T09:52:04Z</time>
      </trkpt>
      <trkpt lat="45.57025" lon="6.80855">
        <ele>2398.337</ele>
        <time>2020-12-13T09:52:14Z</time>
      </trkpt>
      <trkpt lat="45.57029" lon="6.80863">
        <ele>2399.856</ele>
        <time>2020-12-13T09:52:31Z</time>
      </trkpt>
      <trkpt lat="45.57033" lon="6.80871">
        <ele>2400.931</ele>
        <time>2020-12-13T09:52:40Z</time>
      </trkpt>
      <trkpt lat="45.57037" lon="6.80878">
        <ele>2401.703</ele>
        <time>2020-12-13T09:52:49Z</time>
      </trkpt>
      <trkpt lat="45.57042" lon="6.80884">
        <ele>2402.883</ele>
        <time>2020-12-13T09:52:59Z</time>
      </trkpt>
      <trkpt lat="45.57045" lon="6.80893">
        <ele>2402.895</ele>
        <time>2020-12-13T09:53:25Z</time>
      </trkpt>
      <trkpt lat="45.5705" lon="6.80901">
        <ele>2403.37</ele>
        <time>2020-12-13T09:53:34Z</time>
      </trkpt>
      <trkpt lat="45.57054" lon="6.80908">
        <ele>2403.832</ele>
        <time>2020-12-13T09:53:43Z</time>
      </trkpt>
      <trkpt lat="45.57059" lon="6.80915">
        <ele>2404.988</ele>
        <time>2020-12-13T09:53:52Z</time>
      </trkpt>
      <trkpt lat="45.57064" lon="6.80922">
        <ele>2404.899</ele>
        <time>2020-12-13T09:54:02Z</time>
      </trkpt>
      <trkpt lat="45.57068" lon="6.8093">
        <ele>2404.839</ele>
        <time>2020-12-13T09:54:13Z</time>
      </trkpt>
      <trkpt lat="45.57072" lon="6.80937">
        <ele>2405.318</ele>
        <time>2020-12-13T09:54:23Z</time>
      </trkpt>
      <trkpt lat="45.57077" lon="6.80944">
        <ele>2405.971</ele>
        <time>2020-12-13T09:54:32Z</time>
      </trkpt>
      <trkpt lat="45.5708" lon="6.80953">
        <ele>2406.122</ele>
        <time>2020-12-13T09:54:43Z</time>
      </trkpt>
      <trkpt lat="45.57084" lon="6.80961">
        <ele>2406.437</ele>
        <time>2020-12-13T09:54:53Z</time>
      </trkpt>
      <trkpt lat="45.57088" lon="6.80969">
        <ele>2406.758</ele>
        <time>2020-12-13T09:55:01Z</time>
      </trkpt>
      <trkpt lat="45.5709" lon="6.80978">
        <ele>2406.382</ele>
        <time>2020-12-13T09:55:11Z</time>
      </trkpt>
      <trkpt lat="45.57094" lon="6.80986">
        <ele>2407.057</ele>
        <time>2020-12-13T09:55:22Z</time>
      </trkpt>
      <trkpt lat="45.57099" lon="6.80995">
        <ele>2408.015</ele>
        <time>2020-12-13T09:55:32Z</time>
      </trkpt>
      <trkpt lat="45.57102" lon="6.81003">
        <ele>2407.597</ele>
        <time>2020-12-13T09:55:42Z</time>
      </trkpt>
      <trkpt lat="45.57105" lon="6.81012">
        <ele>2408.358</ele>
        <time>2020-12-13T09:55:52Z</time>
      </trkpt>
      <trkpt lat="45.57107" lon="6.81021">
        <ele>2408.795</ele>
        <time>2020-12-13T09:56:02Z</time>
      </trkpt>
      <trkpt lat="45.5711" lon="6.8103">
        <ele>2408.639</ele>
        <time>2020-12-13T09:56:12Z</time>
      </trkpt>
      <trkpt lat="45.57112" lon="6.81039">
        <ele>2408.966</ele>
        <time>2020-12-13T09:56:23Z</time>
      </trkpt>
      <trkpt lat="45.57115" lon="6.81048">
        <ele>2408.73</ele>
        <time>2020-12-13T09:56:34Z</time>
      </trkpt>
      <trkpt lat="45.5712" lon="6.81056">
        <ele>2409.895</ele>
        <time>2020-12-13T09:56:43Z</time>
      </trkpt>
      <trkpt lat="45.57123" lon="6.81065">
        <ele>2410.285</ele>
        <time>2020-12-13T09:56:53Z</time>
      </trkpt>
      <trkpt lat="45.57125" lon="6.81074">
        <ele>2410.921</ele>
        <time>2020-12-13T09:57:04Z</time>
      </trkpt>
      <trkpt lat="45.57128" lon="6.81083">
        <ele>2411.686</ele>
        <time>2020-12-13T09:57:14Z</time>
      </trkpt>
      <trkpt lat="45.57131" lon="6.81092">
        <ele>2411.011</ele>
        <time>2020-12-13T09:57:24Z</time>
      </trkpt>
      <trkpt lat="45.57135" lon="6.81101">
        <ele>2412.258</ele>
        <time>2020-12-13T09:57:33Z</time>
      </trkpt>
      <trkpt lat="45.57139" lon="6.81109">
        <ele>2412.914</ele>
        <time>2020-12-13T09:57:43Z</time>
      </trkpt>
      <trkpt lat="45.57144" lon="6.81116">
        <ele>2413.362</ele>
        <time>2020-12-13T09:57:54Z</time>
      </trkpt>
      <trkpt lat="45.57148" lon="6.81123">
        <ele>2413.633</ele>
        <time>2020-12-13T09:58:05Z</time>
      </trkpt>
      <trkpt lat="45.57152" lon="6.8113">
        <ele>2414.789</ele>
        <time>2020-12-13T09:58:16Z</time>
      </trkpt>
      <trkpt lat="45.57158" lon="6.81136">
        <ele>2416.039</ele>
        <time>2020-12-13T09:58:26Z</time>
      </trkpt>
      <trkpt lat="45.57163" lon="6.81143">
        <ele>2417.107</ele>
        <time>2020-12-13T09:58:36Z</time>
      </trkpt>
      <trkpt lat="45.57168" lon="6.8115">
        <ele>2417.484</ele>
        <time>2020-12-13T09:58:47Z</time>
      </trkpt>
      <trkpt lat="45.57173" lon="6.81156">
        <ele>2418.65</ele>
        <time>2020-12-13T09:58:56Z</time>
      </trkpt>
      <trkpt lat="45.57179" lon="6.81161">
        <ele>2418.733</ele>
        <time>2020-12-13T09:59:09Z</time>
      </trkpt>
      <trkpt lat="45.57178" lon="6.81171">
        <ele>2419.772</ele>
        <time>2020-12-13T09:59:24Z</time>
      </trkpt>
      <trkpt lat="45.5718" lon="6.8118">
        <ele>2420.854</ele>
        <time>2020-12-13T10:05:37Z</time>
      </trkpt>
      <trkpt lat="45.57184" lon="6.81188">
        <ele>2421.079</ele>
        <time>2020-12-13T10:05:46Z</time>
      </trkpt>
      <trkpt lat="45.57188" lon="6.81197">
        <ele>2421.746</ele>
        <time>2020-12-13T10:05:56Z</time>
      </trkpt>
      <trkpt lat="45.57186" lon="6.81206">
        <ele>2421.923</ele>
        <time>2020-12-13T10:06:07Z</time>
      </trkpt>
      <trkpt lat="45.57188" lon="6.81197">
        <ele>2420.491</ele>
        <time>2020-12-13T10:06:27Z</time>
      </trkpt>
      <trkpt lat="45.57188" lon="6.81186">
        <ele>2419.675</ele>
        <time>2020-12-13T10:06:36Z</time>
      </trkpt>
      <trkpt lat="45.57188" lon="6.81173">
        <ele>2418.164</ele>
        <time>2020-12-13T10:06:41Z</time>
      </trkpt>
      <trkpt lat="45.57187" lon="6.81162">
        <ele>2418.55</ele>
        <time>2020-12-13T10:06:46Z</time>
      </trkpt>
      <trkpt lat="45.57182" lon="6.81155">
        <ele>2418.124</ele>
        <time>2020-12-13T10:06:52Z</time>
      </trkpt>
      <trkpt lat="45.57176" lon="6.81161">
        <ele>2420.606</ele>
        <time>2020-12-13T10:10:44Z</time>
      </trkpt>
      <trkpt lat="45.57174" lon="6.8117">
        <ele>2420.969</ele>
        <time>2020-12-13T10:10:55Z</time>
      </trkpt>
      <trkpt lat="45.57178" lon="6.81163">
        <ele>2420.042</ele>
        <time>2020-12-13T10:22:15Z</time>
      </trkpt>
      <trkpt lat="45.57174" lon="6.81155">
        <ele>2419.2</ele>
        <time>2020-12-13T10:23:12Z</time>
      </trkpt>
      <trkpt lat="45.57168" lon="6.81149">
        <ele>2418.934</ele>
        <time>2020-12-13T10:23:39Z</time>
      </trkpt>
      <trkpt lat="45.57164" lon="6.81143">
        <ele>2418.259</ele>
        <time>2020-12-13T10:23:49Z</time>
      </trkpt>
      <trkpt lat="45.57159" lon="6.81136">
        <ele>2417.36</ele>
        <time>2020-12-13T10:24:03Z</time>
      </trkpt>
      <trkpt lat="45.57154" lon="6.8113">
        <ele>2416.368</ele>
        <time>2020-12-13T10:24:15Z</time>
      </trkpt>
      <trkpt lat="45.57149" lon="6.81123">
        <ele>2414.91</ele>
        <time>2020-12-13T10:24:34Z</time>
      </trkpt>
      <trkpt lat="45.57145" lon="6.81116">
        <ele>2414.492</ele>
        <time>2020-12-13T10:24:48Z</time>
      </trkpt>
      <trkpt lat="45.5714" lon="6.81108">
        <ele>2414.056</ele>
        <time>2020-12-13T10:24:55Z</time>
      </trkpt>
      <trkpt lat="45.57135" lon="6.81096">
        <ele>2413.263</ele>
        <time>2020-12-13T10:25:00Z</time>
      </trkpt>
      <trkpt lat="45.57131" lon="6.81085">
        <ele>2409.549</ele>
        <time>2020-12-13T10:25:05Z</time>
      </trkpt>
      <trkpt lat="45.57131" lon="6.81076">
        <ele>2411.818</ele>
        <time>2020-12-13T10:25:20Z</time>
      </trkpt>
      <trkpt lat="45.57126" lon="6.81071">
        <ele>2410.049</ele>
        <time>2020-12-13T10:27:55Z</time>
      </trkpt>
      <trkpt lat="45.57123" lon="6.81061">
        <ele>2409.877</ele>
        <time>2020-12-13T10:28:04Z</time>
      </trkpt>
      <trkpt lat="45.5712" lon="6.81053">
        <ele>2410.406</ele>
        <time>2020-12-13T10:28:20Z</time>
      </trkpt>
      <trkpt lat="45.57117" lon="6.81044">
        <ele>2409.863</ele>
        <time>2020-12-13T10:28:33Z</time>
      </trkpt>
      <trkpt lat="45.57114" lon="6.81036">
        <ele>2408.99</ele>
        <time>2020-12-13T10:29:01Z</time>
      </trkpt>
      <trkpt lat="45.5711" lon="6.81027">
        <ele>2409.132</ele>
        <time>2020-12-13T10:29:09Z</time>
      </trkpt>
      <trkpt lat="45.57109" lon="6.81016">
        <ele>2408.878</ele>
        <time>2020-12-13T10:29:20Z</time>
      </trkpt>
      <trkpt lat="45.57107" lon="6.81006">
        <ele>2412.748</ele>
        <time>2020-12-13T10:29:27Z</time>
      </trkpt>
      <trkpt lat="45.57104" lon="6.80998">
        <ele>2413.955</ele>
        <time>2020-12-13T10:29:40Z</time>
      </trkpt>
      <trkpt lat="45.57099" lon="6.80991">
        <ele>2412.459</ele>
        <time>2020-12-13T10:29:57Z</time>
      </trkpt>
      <trkpt lat="45.57096" lon="6.80983">
        <ele>2412.344</ele>
        <time>2020-12-13T10:30:05Z</time>
      </trkpt>
      <trkpt lat="45.57093" lon="6.80975">
        <ele>2412.772</ele>
        <time>2020-12-13T10:30:16Z</time>
      </trkpt>
      <trkpt lat="45.57088" lon="6.80968">
        <ele>2411.839</ele>
        <time>2020-12-13T10:30:26Z</time>
      </trkpt>
      <trkpt lat="45.57083" lon="6.80961">
        <ele>2409.439</ele>
        <time>2020-12-13T10:30:39Z</time>
      </trkpt>
      <trkpt lat="45.57079" lon="6.80954">
        <ele>2407.197</ele>
        <time>2020-12-13T10:30:57Z</time>
      </trkpt>
      <trkpt lat="45.57075" lon="6.80946">
        <ele>2405.998</ele>
        <time>2020-12-13T10:31:09Z</time>
      </trkpt>
      <trkpt lat="45.5707" lon="6.80938">
        <ele>2405.047</ele>
        <time>2020-12-13T10:31:22Z</time>
      </trkpt>
      <trkpt lat="45.57066" lon="6.80931">
        <ele>2404.93</ele>
        <time>2020-12-13T10:31:31Z</time>
      </trkpt>
      <trkpt lat="45.57062" lon="6.80923">
        <ele>2403.824</ele>
        <time>2020-12-13T10:31:42Z</time>
      </trkpt>
      <trkpt lat="45.57057" lon="6.80916">
        <ele>2402.199</ele>
        <time>2020-12-13T10:31:54Z</time>
      </trkpt>
      <trkpt lat="45.57053" lon="6.80909">
        <ele>2401.145</ele>
        <time>2020-12-13T10:31:59Z</time>
      </trkpt>
      <trkpt lat="45.57048" lon="6.80902">
        <ele>2401.339</ele>
        <time>2020-12-13T10:32:06Z</time>
      </trkpt>
      <trkpt lat="45.57044" lon="6.80894">
        <ele>2401.144</ele>
        <time>2020-12-13T10:32:18Z</time>
      </trkpt>
      <trkpt lat="45.5704" lon="6.80886">
        <ele>2400.294</ele>
        <time>2020-12-13T10:32:29Z</time>
      </trkpt>
      <trkpt lat="45.57035" lon="6.80879">
        <ele>2399.963</ele>
        <time>2020-12-13T10:32:42Z</time>
      </trkpt>
      <trkpt lat="45.5703" lon="6.80872">
        <ele>2399.572</ele>
        <time>2020-12-13T10:32:52Z</time>
      </trkpt>
      <trkpt lat="45.57027" lon="6.80863">
        <ele>2398.705</ele>
        <time>2020-12-13T10:32:59Z</time>
      </trkpt>
      <trkpt lat="45.57022" lon="6.80854">
        <ele>2397.346</ele>
        <time>2020-12-13T10:33:04Z</time>
      </trkpt>
      <trkpt lat="45.57018" lon="6.80842">
        <ele>2395.086</ele>
        <time>2020-12-13T10:33:49Z</time>
      </trkpt>
      <trkpt lat="45.57025" lon="6.80807">
        <ele>2388.652</ele>
        <time>2020-12-13T10:33:54Z</time>
      </trkpt>
      <trkpt lat="45.57053" lon="6.80824">
        <ele>2379.497</ele>
        <time>2020-12-13T10:33:59Z</time>
      </trkpt>
      <trkpt lat="45.57075" lon="6.80847">
        <ele>2377.69</ele>
        <time>2020-12-13T10:34:04Z</time>
      </trkpt>
      <trkpt lat="45.57086" lon="6.80858">
        <ele>2376.508</ele>
        <time>2020-12-13T10:34:09Z</time>
      </trkpt>
      <trkpt lat="45.571" lon="6.80877">
        <ele>2373.343</ele>
        <time>2020-12-13T10:34:14Z</time>
      </trkpt>
      <trkpt lat="45.57116" lon="6.80901">
        <ele>2369.674</ele>
        <time>2020-12-13T10:34:19Z</time>
      </trkpt>
      <trkpt lat="45.57121" lon="6.80906">
        <ele>2370.547</ele>
        <time>2020-12-13T10:34:28Z</time>
      </trkpt>
      <trkpt lat="45.57125" lon="6.80914">
        <ele>2372.151</ele>
        <time>2020-12-13T10:34:47Z</time>
      </trkpt>
      <trkpt lat="45.57129" lon="6.80921">
        <ele>2371.931</ele>
        <time>2020-12-13T10:35:07Z</time>
      </trkpt>
      <trkpt lat="45.5713" lon="6.80931">
        <ele>2371.102</ele>
        <time>2020-12-13T10:35:34Z</time>
      </trkpt>
      <trkpt lat="45.57128" lon="6.80921">
        <ele>2369.541</ele>
        <time>2020-12-13T10:35:50Z</time>
      </trkpt>
      <trkpt lat="45.57125" lon="6.80913">
        <ele>2368.598</ele>
        <time>2020-12-13T10:36:13Z</time>
      </trkpt>
      <trkpt lat="45.57122" lon="6.80905">
        <ele>2368.285</ele>
        <time>2020-12-13T10:36:42Z</time>
      </trkpt>
      <trkpt lat="45.57116" lon="6.80901">
        <ele>2370.182</ele>
        <time>2020-12-13T10:38:16Z</time>
      </trkpt>
      <trkpt lat="45.5712" lon="6.80892">
        <ele>2369.374</ele>
        <time>2020-12-13T10:39:12Z</time>
      </trkpt>
      <trkpt lat="45.57119" lon="6.80861">
        <ele>2365.854</ele>
        <time>2020-12-13T10:39:17Z</time>
      </trkpt>
      <trkpt lat="45.57111" lon="6.80824">
        <ele>2360.279</ele>
        <time>2020-12-13T10:39:22Z</time>
      </trkpt>
      <trkpt lat="45.57112" lon="6.80788">
        <ele>2354.474</ele>
        <time>2020-12-13T10:39:27Z</time>
      </trkpt>
      <trkpt lat="45.57141" lon="6.80801">
        <ele>2341.119</ele>
        <time>2020-12-13T10:39:32Z</time>
      </trkpt>
      <trkpt lat="45.57172" lon="6.80837">
        <ele>2327.306</ele>
        <time>2020-12-13T10:39:37Z</time>
      </trkpt>
      <trkpt lat="45.57202" lon="6.80849">
        <ele>2318.914</ele>
        <time>2020-12-13T10:39:42Z</time>
      </trkpt>
      <trkpt lat="45.57231" lon="6.80851">
        <ele>2312.343</ele>
        <time>2020-12-13T10:39:47Z</time>
      </trkpt>
      <trkpt lat="45.57262" lon="6.80846">
        <ele>2303.497</ele>
        <time>2020-12-13T10:39:52Z</time>
      </trkpt>
      <trkpt lat="45.57289" lon="6.80838">
        <ele>2297.056</ele>
        <time>2020-12-13T10:39:57Z</time>
      </trkpt>
      <trkpt lat="45.57313" lon="6.80834">
        <ele>2290.718</ele>
        <time>2020-12-13T10:40:02Z</time>
      </trkpt>
      <trkpt lat="45.57335" lon="6.80832">
        <ele>2285.647</ele>
        <time>2020-12-13T10:40:07Z</time>
      </trkpt>
      <trkpt lat="45.57365" lon="6.8083">
        <ele>2278.664</ele>
        <time>2020-12-13T10:40:12Z</time>
      </trkpt>
      <trkpt lat="45.57393" lon="6.80827">
        <ele>2272.003</ele>
        <time>2020-12-13T10:40:17Z</time>
      </trkpt>
      <trkpt lat="45.57419" lon="6.8081">
        <ele>2263.304</ele>
        <time>2020-12-13T10:40:22Z</time>
      </trkpt>
      <trkpt lat="45.57446" lon="6.80788">
        <ele>2253.873</ele>
        <time>2020-12-13T10:40:27Z</time>
      </trkpt>
      <trkpt lat="45.57471" lon="6.80774">
        <ele>2247.507</ele>
        <time>2020-12-13T10:40:32Z</time>
      </trkpt>
      <trkpt lat="45.57498" lon="6.80747">
        <ele>2237.696</ele>
        <time>2020-12-13T10:40:37Z</time>
      </trkpt>
      <trkpt lat="45.57515" lon="6.80713">
        <ele>2230.332</ele>
        <time>2020-12-13T10:40:42Z</time>
      </trkpt>
      <trkpt lat="45.57526" lon="6.80673">
        <ele>2222.077</ele>
        <time>2020-12-13T10:40:47Z</time>
      </trkpt>
      <trkpt lat="45.57537" lon="6.8062">
        <ele>2209.641</ele>
        <time>2020-12-13T10:40:52Z</time>
      </trkpt>
      <trkpt lat="45.57553" lon="6.80557">
        <ele>2202.763</ele>
        <time>2020-12-13T10:40:57Z</time>
      </trkpt>
      <trkpt lat="45.57564" lon="6.80497">
        <ele>2197.74</ele>
        <time>2020-12-13T10:41:02Z</time>
      </trkpt>
      <trkpt lat="45.57577" lon="6.80453">
        <ele>2188.836</ele>
        <time>2020-12-13T10:41:07Z</time>
      </trkpt>
      <trkpt lat="45.57587" lon="6.80406">
        <ele>2177.173</ele>
        <time>2020-12-13T10:41:12Z</time>
      </trkpt>
      <trkpt lat="45.57591" lon="6.80367">
        <ele>2168.296</ele>
        <time>2020-12-13T10:41:17Z</time>
      </trkpt>
      <trkpt lat="45.57593" lon="6.80327">
        <ele>2160.731</ele>
        <time>2020-12-13T10:41:22Z</time>
      </trkpt>
      <trkpt lat="45.57586" lon="6.80275">
        <ele>2150.805</ele>
        <time>2020-12-13T10:41:27Z</time>
      </trkpt>
      <trkpt lat="45.57574" lon="6.80225">
        <ele>2146.235</ele>
        <time>2020-12-13T10:41:32Z</time>
      </trkpt>
      <trkpt lat="45.57559" lon="6.80184">
        <ele>2141.11</ele>
        <time>2020-12-13T10:41:37Z</time>
      </trkpt>
      <trkpt lat="45.57547" lon="6.80138">
        <ele>2136.733</ele>
        <time>2020-12-13T10:41:42Z</time>
      </trkpt>
      <trkpt lat="45.5755" lon="6.80108">
        <ele>2129.145</ele>
        <time>2020-12-13T10:41:47Z</time>
      </trkpt>
      <trkpt lat="45.57551" lon="6.80082">
        <ele>2125.437</ele>
        <time>2020-12-13T10:41:52Z</time>
      </trkpt>
      <trkpt lat="45.57555" lon="6.80038">
        <ele>2117.377</ele>
        <time>2020-12-13T10:41:57Z</time>
      </trkpt>
      <trkpt lat="45.57568" lon="6.7999">
        <ele>2108.192</ele>
        <time>2020-12-13T10:42:02Z</time>
      </trkpt>
      <trkpt lat="45.57577" lon="6.79946">
        <ele>2098.55</ele>
        <time>2020-12-13T10:42:07Z</time>
      </trkpt>
      <trkpt lat="45.57585" lon="6.79903">
        <ele>2090.947</ele>
        <time>2020-12-13T10:42:12Z</time>
      </trkpt>
      <trkpt lat="45.57591" lon="6.79855">
        <ele>2082.39</ele>
        <time>2020-12-13T10:42:17Z</time>
      </trkpt>
      <trkpt lat="45.57591" lon="6.79811">
        <ele>2073.492</ele>
        <time>2020-12-13T10:42:22Z</time>
      </trkpt>
      <trkpt lat="45.57594" lon="6.79773">
        <ele>2066.45</ele>
        <time>2020-12-13T10:42:27Z</time>
      </trkpt>
      <trkpt lat="45.57588" lon="6.79725">
        <ele>2056.073</ele>
        <time>2020-12-13T10:42:32Z</time>
      </trkpt>
      <trkpt lat="45.57566" lon="6.79678">
        <ele>2044.216</ele>
        <time>2020-12-13T10:42:37Z</time>
      </trkpt>
      <trkpt lat="45.57535" lon="6.79637">
        <ele>2037.956</ele>
        <time>2020-12-13T10:42:42Z</time>
      </trkpt>
      <trkpt lat="45.57513" lon="6.79603">
        <ele>2036.431</ele>
        <time>2020-12-13T10:42:47Z</time>
      </trkpt>
      <trkpt lat="45.57493" lon="6.79577">
        <ele>2033.614</ele>
        <time>2020-12-13T10:42:52Z</time>
      </trkpt>
      <trkpt lat="45.57466" lon="6.79562">
        <ele>2029.427</ele>
        <time>2020-12-13T10:42:57Z</time>
      </trkpt>
      <trkpt lat="45.57428" lon="6.79548">
        <ele>2023.775</ele>
        <time>2020-12-13T10:43:03Z</time>
      </trkpt>
      <trkpt lat="45.57392" lon="6.79547">
        <ele>2018.666</ele>
        <time>2020-12-13T10:43:08Z</time>
      </trkpt>
      <trkpt lat="45.57373" lon="6.79553">
        <ele>2018.397</ele>
        <time>2020-12-13T10:43:13Z</time>
      </trkpt>
      <trkpt lat="45.57358" lon="6.79537">
        <ele>2016.563</ele>
        <time>2020-12-13T10:43:18Z</time>
      </trkpt>
      <trkpt lat="45.57345" lon="6.79521">
        <ele>2016.822</ele>
        <time>2020-12-13T10:43:23Z</time>
      </trkpt>
      <trkpt lat="45.57341" lon="6.79514">
        <ele>2016.773</ele>
        <time>2020-12-13T10:43:38Z</time>
      </trkpt>
      <trkpt lat="45.57333" lon="6.79508">
        <ele>2015.212</ele>
        <time>2020-12-13T10:44:06Z</time>
      </trkpt>
      <trkpt lat="45.57313" lon="6.7949">
        <ele>2012.716</ele>
        <time>2020-12-13T10:44:11Z</time>
      </trkpt>
      <trkpt lat="45.57296" lon="6.79467">
        <ele>2008.932</ele>
        <time>2020-12-13T10:44:16Z</time>
      </trkpt>
      <trkpt lat="45.57275" lon="6.79434">
        <ele>1996.45</ele>
        <time>2020-12-13T10:44:21Z</time>
      </trkpt>
      <trkpt lat="45.5725" lon="6.79401">
        <ele>1982.679</ele>
        <time>2020-12-13T10:44:26Z</time>
      </trkpt>
      <trkpt lat="45.57248" lon="6.79356">
        <ele>1967.475</ele>
        <time>2020-12-13T10:44:31Z</time>
      </trkpt>
      <trkpt lat="45.57241" lon="6.79315">
        <ele>1956.888</ele>
        <time>2020-12-13T10:44:36Z</time>
      </trkpt>
      <trkpt lat="45.57271" lon="6.79316">
        <ele>1951.812</ele>
        <time>2020-12-13T10:44:41Z</time>
      </trkpt>
      <trkpt lat="45.57294" lon="6.79281">
        <ele>1943.992</ele>
        <time>2020-12-13T10:44:46Z</time>
      </trkpt>
      <trkpt lat="45.57306" lon="6.79235">
        <ele>1934.076</ele>
        <time>2020-12-13T10:44:51Z</time>
      </trkpt>
      <trkpt lat="45.57316" lon="6.79195">
        <ele>1923.456</ele>
        <time>2020-12-13T10:44:56Z</time>
      </trkpt>
      <trkpt lat="45.57311" lon="6.79159">
        <ele>1915.945</ele>
        <time>2020-12-13T10:45:01Z</time>
      </trkpt>
      <trkpt lat="45.57305" lon="6.79129">
        <ele>1909.889</ele>
        <time>2020-12-13T10:45:06Z</time>
      </trkpt>
      <trkpt lat="45.57303" lon="6.7909">
        <ele>1901.619</ele>
        <time>2020-12-13T10:45:11Z</time>
      </trkpt>
      <trkpt lat="45.57313" lon="6.79031">
        <ele>1889.934</ele>
        <time>2020-12-13T10:45:16Z</time>
      </trkpt>
      <trkpt lat="45.57319" lon="6.78986">
        <ele>1882.201</ele>
        <time>2020-12-13T10:45:21Z</time>
      </trkpt>
      <trkpt lat="45.57327" lon="6.78933">
        <ele>1871.305</ele>
        <time>2020-12-13T10:45:26Z</time>
      </trkpt>
      <trkpt lat="45.57323" lon="6.78883">
        <ele>1862.081</ele>
        <time>2020-12-13T10:45:31Z</time>
      </trkpt>
      <trkpt lat="45.57327" lon="6.78825">
        <ele>1851.666</ele>
        <time>2020-12-13T10:45:36Z</time>
      </trkpt>
      <trkpt lat="45.57331" lon="6.7878">
        <ele>1843.602</ele>
        <time>2020-12-13T10:45:41Z</time>
      </trkpt>
      <trkpt lat="45.57337" lon="6.78737">
        <ele>1839.219</ele>
        <time>2020-12-13T10:45:46Z</time>
      </trkpt>
      <trkpt lat="45.57331" lon="6.78699">
        <ele>1835.96</ele>
        <time>2020-12-13T10:45:51Z</time>
      </trkpt>
      <trkpt lat="45.57331" lon="6.78669">
        <ele>1831.736</ele>
        <time>2020-12-13T10:45:56Z</time>
      </trkpt>
      <trkpt lat="45.57331" lon="6.78628">
        <ele>1827.708</ele>
        <time>2020-12-13T10:46:01Z</time>
      </trkpt>
      <trkpt lat="45.57328" lon="6.78575">
        <ele>1822.125</ele>
        <time>2020-12-13T10:46:06Z</time>
      </trkpt>
      <trkpt lat="45.5732" lon="6.78536">
        <ele>1817.106</ele>
        <time>2020-12-13T10:46:11Z</time>
      </trkpt>
      <trkpt lat="45.57306" lon="6.7851">
        <ele>1811.871</ele>
        <time>2020-12-13T10:46:16Z</time>
      </trkpt>
      <trkpt lat="45.57291" lon="6.7848">
        <ele>1804.81</ele>
        <time>2020-12-13T10:46:21Z</time>
      </trkpt>
      <trkpt lat="45.57284" lon="6.78464">
        <ele>1804.056</ele>
        <time>2020-12-13T10:46:26Z</time>
      </trkpt>
      <trkpt lat="45.57279" lon="6.78455">
        <ele>1800.833</ele>
        <time>2020-12-13T10:46:39Z</time>
      </trkpt>
      <trkpt lat="45.57277" lon="6.78446">
        <ele>1801.64</ele>
        <time>2020-12-13T10:46:44Z</time>
      </trkpt>
      <trkpt lat="45.57277" lon="6.78436">
        <ele>1803.033</ele>
        <time>2020-12-13T10:46:52Z</time>
      </trkpt>
      <trkpt lat="45.57279" lon="6.78427">
        <ele>1803.891</ele>
        <time>2020-12-13T10:47:14Z</time>
      </trkpt>
      <trkpt lat="45.57281" lon="6.78415">
        <ele>1802.843</ele>
        <time>2020-12-13T10:47:23Z</time>
      </trkpt>
      <trkpt lat="45.57292" lon="6.78387">
        <ele>1796.799</ele>
        <time>2020-12-13T10:47:28Z</time>
      </trkpt>
      <trkpt lat="45.57312" lon="6.78344">
        <ele>1785.122</ele>
        <time>2020-12-13T10:47:33Z</time>
      </trkpt>
      <trkpt lat="45.57311" lon="6.78298">
        <ele>1777.227</ele>
        <time>2020-12-13T10:47:38Z</time>
      </trkpt>
      <trkpt lat="45.57323" lon="6.78261">
        <ele>1766.091</ele>
        <time>2020-12-13T10:47:43Z</time>
      </trkpt>
      <trkpt lat="45.57343" lon="6.78205">
        <ele>1751.238</ele>
        <time>2020-12-13T10:47:48Z</time>
      </trkpt>
      <trkpt lat="45.57355" lon="6.78148">
        <ele>1744.351</ele>
        <time>2020-12-13T10:47:53Z</time>
      </trkpt>
      <trkpt lat="45.57366" lon="6.78098">
        <ele>1738.059</ele>
        <time>2020-12-13T10:47:58Z</time>
      </trkpt>
      <trkpt lat="45.57369" lon="6.78047">
        <ele>1730.048</ele>
        <time>2020-12-13T10:48:03Z</time>
      </trkpt>
      <trkpt lat="45.57375" lon="6.77991">
        <ele>1721.911</ele>
        <time>2020-12-13T10:48:08Z</time>
      </trkpt>
      <trkpt lat="45.57382" lon="6.77962">
        <ele>1721.177</ele>
        <time>2020-12-13T10:48:13Z</time>
      </trkpt>
      <trkpt lat="45.57388" lon="6.77966">
        <ele>1718.911</ele>
        <time>2020-12-13T10:49:35Z</time>
      </trkpt>
      <trkpt lat="45.57395" lon="6.77965">
        <ele>1718.802</ele>
        <time>2020-12-13T10:49:56Z</time>
      </trkpt>
      <trkpt lat="45.57402" lon="6.77966">
        <ele>1719.697</ele>
        <time>2020-12-13T10:50:03Z</time>
      </trkpt>
      <trkpt lat="45.57409" lon="6.77965">
        <ele>1720.048</ele>
        <time>2020-12-13T10:50:10Z</time>
      </trkpt>
      <trkpt lat="45.57415" lon="6.77967">
        <ele>1719.687</ele>
        <time>2020-12-13T10:50:17Z</time>
      </trkpt>
      <trkpt lat="45.57422" lon="6.77972">
        <ele>1719.939</ele>
        <time>2020-12-13T10:50:25Z</time>
      </trkpt>
      <trkpt lat="45.57428" lon="6.77974">
        <ele>1720.298</ele>
        <time>2020-12-13T10:50:31Z</time>
      </trkpt>
      <trkpt lat="45.57435" lon="6.77976">
        <ele>1720.723</ele>
        <time>2020-12-13T10:50:39Z</time>
      </trkpt>
      <trkpt lat="45.57442" lon="6.77978">
        <ele>1721.73</ele>
        <time>2020-12-13T10:50:46Z</time>
      </trkpt>
      <trkpt lat="45.57449" lon="6.77981">
        <ele>1722.437</ele>
        <time>2020-12-13T10:50:54Z</time>
      </trkpt>
      <trkpt lat="45.57454" lon="6.77988">
        <ele>1722.027</ele>
        <time>2020-12-13T10:51:03Z</time>
      </trkpt>
      <trkpt lat="45.57461" lon="6.7799">
        <ele>1722.329</ele>
        <time>2020-12-13T10:51:11Z</time>
      </trkpt>
      <trkpt lat="45.57468" lon="6.77991">
        <ele>1723.773</ele>
        <time>2020-12-13T10:51:18Z</time>
      </trkpt>
      <trkpt lat="45.57475" lon="6.77991">
        <ele>1724.639</ele>
        <time>2020-12-13T10:51:25Z</time>
      </trkpt>
      <trkpt lat="45.57482" lon="6.7799">
        <ele>1724.126</ele>
        <time>2020-12-13T10:51:32Z</time>
      </trkpt>
      <trkpt lat="45.5749" lon="6.77989">
        <ele>1724.777</ele>
        <time>2020-12-13T10:51:39Z</time>
      </trkpt>
      <trkpt lat="45.57497" lon="6.77991">
        <ele>1726.544</ele>
        <time>2020-12-13T10:51:46Z</time>
      </trkpt>
      <trkpt lat="45.57504" lon="6.77995">
        <ele>1727.646</ele>
        <time>2020-12-13T10:51:54Z</time>
      </trkpt>
      <trkpt lat="45.5751" lon="6.77998">
        <ele>1727.642</ele>
        <time>2020-12-13T10:52:01Z</time>
      </trkpt>
      <trkpt lat="45.57517" lon="6.78">
        <ele>1727.333</ele>
        <time>2020-12-13T10:52:08Z</time>
      </trkpt>
      <trkpt lat="45.57524" lon="6.78005">
        <ele>1728.008</ele>
        <time>2020-12-13T10:52:15Z</time>
      </trkpt>
      <trkpt lat="45.5753" lon="6.7801">
        <ele>1726.856</ele>
        <time>2020-12-13T10:52:22Z</time>
      </trkpt>
      <trkpt lat="45.57537" lon="6.78015">
        <ele>1726.488</ele>
        <time>2020-12-13T10:52:28Z</time>
      </trkpt>
      <trkpt lat="45.57543" lon="6.78019">
        <ele>1726.822</ele>
        <time>2020-12-13T10:52:34Z</time>
      </trkpt>
      <trkpt lat="45.5755" lon="6.78023">
        <ele>1726.467</ele>
        <time>2020-12-13T10:52:40Z</time>
      </trkpt>
      <trkpt lat="45.57556" lon="6.78027">
        <ele>1726.604</ele>
        <time>2020-12-13T10:52:47Z</time>
      </trkpt>
      <trkpt lat="45.57563" lon="6.78028">
        <ele>1726.45</ele>
        <time>2020-12-13T10:52:54Z</time>
      </trkpt>
      <trkpt lat="45.5757" lon="6.78028">
        <ele>1725.38</ele>
        <time>2020-12-13T10:53:00Z</time>
      </trkpt>
      <trkpt lat="45.57577" lon="6.78026">
        <ele>1725.367</ele>
        <time>2020-12-13T10:53:06Z</time>
      </trkpt>
      <trkpt lat="45.57583" lon="6.78023">
        <ele>1724.486</ele>
        <time>2020-12-13T10:53:12Z</time>
      </trkpt>
      <trkpt lat="45.57589" lon="6.78019">
        <ele>1725.461</ele>
        <time>2020-12-13T10:53:18Z</time>
      </trkpt>
      <trkpt lat="45.57596" lon="6.78015">
        <ele>1726.604</ele>
        <time>2020-12-13T10:53:26Z</time>
      </trkpt>
      <trkpt lat="45.576" lon="6.78008">
        <ele>1727.379</ele>
        <time>2020-12-13T10:53:33Z</time>
      </trkpt>
      <trkpt lat="45.57606" lon="6.78002">
        <ele>1725.136</ele>
        <time>2020-12-13T10:53:41Z</time>
      </trkpt>
      <trkpt lat="45.57612" lon="6.78008">
        <ele>1725.339</ele>
        <time>2020-12-13T10:53:48Z</time>
      </trkpt>
      <trkpt lat="45.57607" lon="6.78002">
        <ele>1723.009</ele>
        <time>2020-12-13T10:54:22Z</time>
      </trkpt>
      <trkpt lat="45.57609" lon="6.77992">
        <ele>1722.801</ele>
        <time>2020-12-13T10:54:28Z</time>
      </trkpt>
      <trkpt lat="45.57616" lon="6.77988">
        <ele>1722.56</ele>
        <time>2020-12-13T10:54:35Z</time>
      </trkpt>
      <trkpt lat="45.57616" lon="6.78">
        <ele>1716.173</ele>
        <time>2020-12-13T10:55:51Z</time>
      </trkpt>
      <trkpt lat="45.57614" lon="6.7801">
        <ele>1716.096</ele>
        <time>2020-12-13T10:55:56Z</time>
      </trkpt>
      <trkpt lat="45.57615" lon="6.7801">
        <ele>1717.522</ele>
        <time>2020-12-13T10:56:28Z</time>
      </trkpt>
      <trkpt lat="45.57617" lon="6.7802">
        <ele>1724.577</ele>
        <time>2020-12-13T10:58:27Z</time>
      </trkpt>
    </trkseg>
  </trk>
</gpx>